Observation data for Throckmorton on 02/10/2018      Previous  Date       Current Mesonet Observations  Soil Data  Daily Summary Page  Observations in Plain Language
KTH1 100600Z 02010G17KT 04/M04 A2997 RMK A01 T00431038  RH  056%=      5-min Rain = 0
KTH1 100601Z 02010KT 04/M04 A2997 RMK A01 T00431038  RH  056%=      5-min Rain = 0
KTH1 100602Z 01008KT 04/M04 A2997 RMK A01 T00421039  RH  056%=      5-min Rain = 0
KTH1 100603Z 01006KT 04/M04 A2997 RMK A01 T00421039  RH  056%=      5-min Rain = 0
KTH1 100604Z 01007KT 04/M04 A2997 RMK A01 T00411039  RH  056%=      5-min Rain = 0
KTH1 100605Z 00006KT 04/M04 A2997 RMK A01 T00411039  RH  056%=      5-min Rain = 0
KTH1 100606Z 01008KT 04/M04 A2997 RMK A01 T00401039  RH  056%=      5-min Rain = 0
KTH1 100607Z 00006KT 04/M04 A2997 RMK A01 T00401040  RH  056%=      5-min Rain = 0
KTH1 100608Z 00008KT 04/M04 A2997 RMK A01 T00401040  RH  056%=      5-min Rain = 0
KTH1 100609Z 01007KT 04/M04 A2997 RMK A01 T00391040  RH  056%=      5-min Rain = 0
KTH1 100610Z 02008KT 04/M04 A2997 RMK A01 T00391040  RH  056%=      5-min Rain = 0
KTH1 100611Z 02008KT 04/M04 A2997 RMK A01 T00381041  RH  056%=      5-min Rain = 0
KTH1 100612Z 02008KT 04/M04 A2997 RMK A01 T00381041  RH  056%=      5-min Rain = 0
KTH1 100613Z 01010KT 04/M04 A2997 RMK A01 T00381041  RH  056%=      5-min Rain = 0
KTH1 100614Z 02008KT 04/M04 A2997 RMK A01 T00381041  RH  056%=      5-min Rain = 0
KTH1 100615Z 02011KT 04/M04 A2997 RMK A01 T00371042  RH  056%=      5-min Rain = 0
KTH1 100616Z 02008KT 04/M04 A2997 RMK A01 T00371042  RH  056%=      5-min Rain = 0
KTH1 100617Z 02007KT 04/M04 A2997 RMK A01 T00371042  RH  056%=      5-min Rain = 0
KTH1 100618Z 01008KT 04/M04 A2997 RMK A01 T00371043  RH  056%=      5-min Rain = 0
KTH1 100619Z 02007KT 04/M04 A2997 RMK A01 T00371043  RH  056%=      5-min Rain = 0
KTH1 100620Z 01008KT 04/M04 A2997 RMK A01 T00361043  RH  056%=      5-min Rain = 0
KTH1 100621Z 02006KT 04/M04 A2997 RMK A01 T00361043  RH  056%=      5-min Rain = 0
KTH1 100622Z 01004KT 04/M04 A2997 RMK A01 T00361043  RH  057%=      5-min Rain = 0
KTH1 100623Z 01005KT 04/M04 A2997 RMK A01 T00351043  RH  057%=      5-min Rain = 0
KTH1 100624Z 00005KT 04/M04 A2997 RMK A01 T00351043  RH  057%=      5-min Rain = 0
KTH1 100625Z 00005KT 04/M04 A2997 RMK A01 T00351043  RH  057%=      5-min Rain = 0
KTH1 100626Z 35006KT 03/M04 A2997 RMK A01 T00341043  RH  057%=      5-min Rain = 0
KTH1 100627Z 36006KT 03/M04 A2997 RMK A01 T00341042  RH  057%=      5-min Rain = 0
KTH1 100628Z 36008KT 03/M04 A2997 RMK A01 T00341042  RH  058%=      5-min Rain = 0
KTH1 100629Z 01005KT 03/M04 A2997 RMK A01 T00331042  RH  058%=      5-min Rain = 0
KTH1 100630Z 36004KT 03/M04 A2997 RMK A01 T00331043  RH  058%=      5-min Rain = 0
KTH1 100631Z 01007KT 03/M04 A2997 RMK A01 T00321043  RH  058%=      5-min Rain = 0
KTH1 100632Z 01007KT 03/M04 A2997 RMK A01 T00321044  RH  058%=      5-min Rain = 0
KTH1 100633Z 01009KT 03/M04 A2997 RMK A01 T00311044  RH  058%=      5-min Rain = 0
KTH1 100634Z 01009KT 03/M04 A2997 RMK A01 T00311044  RH  058%=      5-min Rain = 0
KTH1 100635Z 00006KT 03/M05 A2997 RMK A01 T00311045  RH  058%=      5-min Rain = 0
KTH1 100636Z 01008KT 03/M05 A2997 RMK A01 T00301045  RH  058%=      5-min Rain = 0
KTH1 100637Z 01006KT 03/M05 A2997 RMK A01 T00301045  RH  058%=      5-min Rain = 0
KTH1 100638Z 01007KT 03/M05 A2997 RMK A01 T00301045  RH  058%=      5-min Rain = 0
KTH1 100639Z 01009KT 03/M05 A2997 RMK A01 T00301045  RH  058%=      5-min Rain = 0
KTH1 100640Z 01006KT 03/M05 A2997 RMK A01 T00301045  RH  058%=      5-min Rain = 0
KTH1 100641Z 00006KT 03/M05 A2997 RMK A01 T00301045  RH  058%=      5-min Rain = 0
KTH1 100642Z 01006KT 03/M05 A2997 RMK A01 T00291045  RH  058%=      5-min Rain = 0
KTH1 100643Z 01006KT 03/M05 A2997 RMK A01 T00281045  RH  058%=      5-min Rain = 0
KTH1 100644Z 02006KT 03/M05 A2997 RMK A01 T00281045  RH  059%=      5-min Rain = 0
KTH1 100645Z 01008G13KT 03/M05 A2997 RMK A01 T00271046  RH  059%=      5-min Rain = 0
KTH1 100646Z 01006KT 03/M05 A2997 RMK A01 T00271046  RH  058%=      5-min Rain = 0
KTH1 100647Z 02009G14KT 03/M05 A2997 RMK A01 T00271047  RH  058%=      5-min Rain = 0
KTH1 100648Z 01009KT 03/M05 A2997 RMK A01 T00271048  RH  058%=      5-min Rain = 0
KTH1 100649Z 02010KT 03/M05 A2997 RMK A01 T00261048  RH  058%=      5-min Rain = 0
KTH1 100650Z 01010G16KT 03/M05 A2997 RMK A01 T00261048  RH  058%=      5-min Rain = 0
KTH1 100651Z 01010KT 03/M05 A2997 RMK A01 T00261049  RH  058%=      5-min Rain = 0
KTH1 100652Z 01011G16KT 03/M05 A2997 RMK A01 T00251049  RH  058%=      5-min Rain = 0
KTH1 100653Z 02010KT 03/M05 A2997 RMK A01 T00251049  RH  058%=      5-min Rain = 0
KTH1 100654Z 01011G16KT 03/M05 A2997 RMK A01 T00251050  RH  058%=      5-min Rain = 0
KTH1 100655Z 01010KT 03/M05 A2997 RMK A01 T00251050  RH  058%=      5-min Rain = 0
KTH1 100656Z 01008KT 02/M05 A2997 RMK A01 T00241050  RH  058%=      5-min Rain = 0
KTH1 100657Z 01007KT 02/M05 A2997 RMK A01 T00241050  RH  058%=      5-min Rain = 0
KTH1 100658Z 01008KT 02/M05 A2997 RMK A01 T00231050  RH  058%=      5-min Rain = 0
KTH1 100659Z 00010KT 02/M05 A2997 RMK A01 T00231050  RH  058%=      5-min Rain = 0
KTH1 100700Z 00007KT 02/M05 A2997 RMK A01 T00231050  RH  059%=      5-min Rain = 0
KTH1 100701Z 01008KT 02/M05 A2997 RMK A01 T00231050  RH  059%=      5-min Rain = 0
KTH1 100702Z 00008KT 02/M05 A2997 RMK A01 T00221050  RH  059%=      5-min Rain = 0
KTH1 100703Z 36008KT 02/M05 A2997 RMK A01 T00221049  RH  059%=      5-min Rain = 0
KTH1 100704Z 36008KT 02/M05 A2997 RMK A01 T00221049  RH  060%=      5-min Rain = 0
KTH1 100705Z 00009KT 02/M05 A2997 RMK A01 T00211049  RH  060%=      5-min Rain = 0
KTH1 100706Z 00009KT 02/M05 A2997 RMK A01 T00211050  RH  060%=      5-min Rain = 0
KTH1 100707Z 00011KT 02/M05 A2997 RMK A01 T00211050  RH  060%=      5-min Rain = 0
KTH1 100708Z 00008KT 02/M05 A2997 RMK A01 T00201051  RH  059%=      5-min Rain = 0
KTH1 100709Z 01007KT 02/M05 A2997 RMK A01 T00191052  RH  059%=      5-min Rain = 0
KTH1 100710Z 01008KT 02/M05 A2997 RMK A01 T00191052  RH  059%=      5-min Rain = 0
KTH1 100711Z 01007KT 02/M05 A2997 RMK A01 T00181053  RH  059%=      5-min Rain = 0
KTH1 100712Z 02008KT 02/M05 A2997 RMK A01 T00181053  RH  059%=      5-min Rain = 0
KTH1 100713Z 01008KT 02/M05 A2997 RMK A01 T00171053  RH  059%=      5-min Rain = 0
KTH1 100714Z 01007KT 02/M05 A2997 RMK A01 T00171053  RH  059%=      5-min Rain = 0
KTH1 100715Z 01008KT 02/M05 A2997 RMK A01 T00171054  RH  059%=      5-min Rain = 0
KTH1 100716Z 01008KT 02/M05 A2997 RMK A01 T00171053  RH  060%=      5-min Rain = 0
KTH1 100717Z 01008KT 02/M05 A2997 RMK A01 T00171054  RH  060%=      5-min Rain = 0
KTH1 100718Z 01006KT 02/M05 A2997 RMK A01 T00171054  RH  060%=      5-min Rain = 0
KTH1 100719Z 01005KT 02/M05 A2997 RMK A01 T00161054  RH  060%=      5-min Rain = 0
KTH1 100720Z 01008KT 02/M05 A2997 RMK A01 T00161054  RH  060%=      5-min Rain = 0
KTH1 100721Z 00006KT 02/M05 A2998 RMK A01 T00151054  RH  060%=      5-min Rain = 0
KTH1 100722Z 01008KT 02/M05 A2998 RMK A01 T00151054  RH  060%=      5-min Rain = 0
KTH1 100723Z 01007KT 02/M05 A2998 RMK A01 T00151053  RH  061%=      5-min Rain = 0
KTH1 100724Z 01007KT 02/M05 A2998 RMK A01 T00151053  RH  061%=      5-min Rain = 0
KTH1 100725Z 35007KT 02/M05 A2998 RMK A01 T00151053  RH  061%=      5-min Rain = 0
KTH1 100726Z 36006KT 02/M05 A2998 RMK A01 T00151052  RH  061%=      5-min Rain = 0
KTH1 100727Z 01011KT 01/M05 A2998 RMK A01 T00141052  RH  061%=      5-min Rain = 0
KTH1 100728Z 01009KT 01/M05 A2998 RMK A01 T00141054  RH  061%=      5-min Rain = 0
KTH1 100729Z 00011KT 01/M06 A2998 RMK A01 T00141055  RH  060%=      5-min Rain = 0
KTH1 100730Z 36007KT 01/M06 A2998 RMK A01 T00131055  RH  060%=      5-min Rain = 0
KTH1 100731Z 36008KT 01/M06 A2999 RMK A01 T00131055  RH  061%=      5-min Rain = 0
KTH1 100732Z 00012KT 01/M06 A2999 RMK A01 T00131055  RH  061%=      5-min Rain = 0
KTH1 100733Z 36012KT 01/M06 A2999 RMK A01 T00121056  RH  060%=      5-min Rain = 0
KTH1 100734Z 00009KT 01/M06 A2999 RMK A01 T00121056  RH  060%=      5-min Rain = 0
KTH1 100735Z 00010KT 01/M06 A2999 RMK A01 T00121056  RH  060%=      5-min Rain = 0
KTH1 100736Z 36010KT 01/M06 A2999 RMK A01 T00111057  RH  060%=      5-min Rain = 0
KTH1 100737Z 35010KT 01/M06 A2999 RMK A01 T00111056  RH  061%=      5-min Rain = 0
KTH1 100738Z 35008KT 01/M06 A2999 RMK A01 T00111057  RH  061%=      5-min Rain = 0
KTH1 100739Z 36007KT 01/M06 A2999 RMK A01 T00111056  RH  061%=      5-min Rain = 0
KTH1 100740Z 00009G14KT 01/M06 A2999 RMK A01 T00101057  RH  061%=      5-min Rain = 0
KTH1 100741Z 36011KT 01/M06 A2999 RMK A01 T00101057  RH  061%=      5-min Rain = 0
KTH1 100742Z 35009G16KT 01/M06 A2999 RMK A01 T00101057  RH  061%=      5-min Rain = 0
KTH1 100743Z 35007KT 01/M06 A2999 RMK A01 T00101057  RH  061%=      5-min Rain = 0
KTH1 100744Z 35011KT 01/M06 A2999 RMK A01 T00091057  RH  061%=      5-min Rain = 0
KTH1 100745Z 36012KT 01/M06 A2999 RMK A01 T00091057  RH  061%=      5-min Rain = 0
KTH1 100746Z 36013KT 01/M06 A2999 RMK A01 T00091058  RH  061%=      5-min Rain = 0
KTH1 100747Z 35011KT 01/M06 A30 RMK A01 T00091058  RH  061%=      5-min Rain = 0
KTH1 100748Z 35011KT 01/M06 A30 RMK A01 T00081058  RH  061%=      5-min Rain = 0
KTH1 100749Z 36012KT 01/M06 A30 RMK A01 T00081058  RH  061%=      5-min Rain = 0
KTH1 100750Z 00013KT 01/M06 A30 RMK A01 T00081059  RH  061%=      5-min Rain = 0
KTH1 100751Z 36011KT 01/M06 A30 RMK A01 T00081060  RH  061%=      5-min Rain = 0
KTH1 100752Z 36010KT 01/M06 A30 RMK A01 T00071060  RH  061%=      5-min Rain = 0
KTH1 100753Z 00010KT 01/M06 A30 RMK A01 T00071060  RH  061%=      5-min Rain = 0
KTH1 100754Z 36011KT 01/M06 A30 RMK A01 T00061061  RH  061%=      5-min Rain = 0
KTH1 100755Z 01010KT 01/M06 A30 RMK A01 T00061061  RH  061%=      5-min Rain = 0
KTH1 100756Z 00009G14KT 01/M06 A30 RMK A01 T00061061  RH  061%=      5-min Rain = 0
KTH1 100757Z 00011KT 01/M06 A30 RMK A01 T00061061  RH  061%=      5-min Rain = 0
KTH1 100758Z 00010KT 01/M06 A30 RMK A01 T00061061  RH  061%=      5-min Rain = 0
KTH1 100759Z 35010KT 01/M06 A30 RMK A01 T00051061  RH  061%=      5-min Rain = 0
KTH1 100800Z 36012G17KT 01/M06 A30 RMK A01 T00061061  RH  061%=      5-min Rain = 0
KTH1 100801Z 36010KT 01/M06 A30 RMK A01 T00051062  RH  061%=      5-min Rain = 0
KTH1 100802Z 36011G16KT 01/M06 A30 RMK A01 T00061061  RH  061%=      5-min Rain = 0
KTH1 100803Z 35009KT 01/M06 A30 RMK A01 T00061061  RH  061%=      5-min Rain = 0
KTH1 100804Z 36010KT 01/M06 A30 RMK A01 T00061061  RH  061%=      5-min Rain = 0
KTH1 100805Z 35009KT 01/M06 A3001 RMK A01 T00061060  RH  061%=      5-min Rain = 0
KTH1 100806Z 36010KT 01/M06 A30 RMK A01 T00051061  RH  061%=      5-min Rain = 0
KTH1 100807Z 01012KT 01/M06 A30 RMK A01 T00051061  RH  061%=      5-min Rain = 0
KTH1 100808Z 01010KT 01/M06 A30 RMK A01 T00051061  RH  061%=      5-min Rain = 0
KTH1 100809Z 36012KT 01/M06 A30 RMK A01 T00051061  RH  061%=      5-min Rain = 0
KTH1 100810Z 36011KT 01/M06 A30 RMK A01 T00051061  RH  061%=      5-min Rain = 0
KTH1 100811Z 00011KT 01/M06 A30 RMK A01 T00051061  RH  061%=      5-min Rain = 0
KTH1 100812Z 36010KT 01/M06 A30 RMK A01 T00061060  RH  061%=      5-min Rain = 0
KTH1 100813Z 36008KT 01/M06 A30 RMK A01 T00051060  RH  061%=      5-min Rain = 0
KTH1 100814Z 00009KT 01/M06 A30 RMK A01 T00051061  RH  062%=      5-min Rain = 0
KTH1 100815Z 01011KT 01/M06 A30 RMK A01 T00051061  RH  061%=      5-min Rain = 0
KTH1 100816Z 00011KT 00/M06 A30 RMK A01 T00041061  RH  061%=      5-min Rain = 0
KTH1 100817Z 00011KT 00/M06 A30 RMK A01 T00041061  RH  062%=      5-min Rain = 0
KTH1 100818Z 36007KT 00/M06 A30 RMK A01 T00041061  RH  062%=      5-min Rain = 0
KTH1 100819Z 01009KT 00/M06 A30 RMK A01 T00041061  RH  062%=      5-min Rain = 0
KTH1 100820Z 00009KT 00/M06 A30 RMK A01 T00041061  RH  062%=      5-min Rain = 0
KTH1 100821Z 01008KT 00/M06 A30 RMK A01 T00031061  RH  062%=      5-min Rain = 0
KTH1 100822Z 00013KT 00/M06 A30 RMK A01 T00031061  RH  062%=      5-min Rain = 0
KTH1 100823Z 36011KT 00/M06 A30 RMK A01 T00031061  RH  062%=      5-min Rain = 0
KTH1 100824Z 01011G17KT 00/M06 A30 RMK A01 T00031061  RH  062%=      5-min Rain = 0
KTH1 100825Z 00012KT 00/M06 A30 RMK A01 T00031062  RH  062%=      5-min Rain = 0
KTH1 100826Z 00009KT 00/M06 A30 RMK A01 T00031062  RH  062%=      5-min Rain = 0
KTH1 100827Z 00011G16KT 00/M06 A30 RMK A01 T00031061  RH  062%=      5-min Rain = 0
KTH1 100828Z 00010KT 00/M06 A3001 RMK A01 T00031061  RH  062%=      5-min Rain = 0
KTH1 100829Z 36010KT 00/M06 A3001 RMK A01 T00031061  RH  062%=      5-min Rain = 0
KTH1 100830Z 00009KT 00/M06 A3001 RMK A01 T00031062  RH  062%=      5-min Rain = 0
KTH1 100831Z 01007KT 00/M06 A3001 RMK A01 T00031061  RH  062%=      5-min Rain = 0
KTH1 100832Z 35008KT 00/M06 A3001 RMK A01 T00031060  RH  063%=      5-min Rain = 0
KTH1 100833Z 35010KT 00/M06 A3001 RMK A01 T00031059  RH  063%=      5-min Rain = 0
KTH1 100834Z 35008KT 00/M06 A3001 RMK A01 T00031059  RH  063%=      5-min Rain = 0
KTH1 100835Z 34008KT 00/M06 A3001 RMK A01 T00021059  RH  063%=      5-min Rain = 0
KTH1 100836Z 35013G19KT 00/M06 A3001 RMK A01 T00021059  RH  063%=      5-min Rain = 0
KTH1 100837Z 34014G19KT 00/M06 A3001 RMK A01 T00021061  RH  063%=      5-min Rain = 0
KTH1 100838Z 35014G19KT 00/M06 A3001 RMK A01 T00021061  RH  063%=      5-min Rain = 0
KTH1 100839Z 34013KT 00/M06 A3001 RMK A01 T00021062  RH  063%=      5-min Rain = 0
KTH1 100840Z 35010KT 00/M06 A3001 RMK A01 T00011062  RH  063%=      5-min Rain = 0
KTH1 100841Z 35009KT 00/M06 A3001 RMK A01 T00011061  RH  063%=      5-min Rain = 0
KTH1 100842Z 34009KT 00/M06 A3001 RMK A01 T00011061  RH  063%=      5-min Rain = 0
KTH1 100843Z 35011KT 00/06 A3001 RMK A01 T00000-61  RH  063%=      5-min Rain = 0
KTH1 100844Z 35011KT 00/06 A3001 RMK A01 T00-00-62  RH  063%=      5-min Rain = 0
KTH1 100845Z 35010G15KT M00/M06 A3001 RMK A01 T10011062  RH  063%=      5-min Rain = 0
KTH1 100846Z 35011G16KT M00/M06 A3001 RMK A01 T10011061  RH  064%=      5-min Rain = 0
KTH1 100847Z 34008KT M00/M06 A3001 RMK A01 T10011061  RH  064%=      5-min Rain = 0
KTH1 100848Z 35010KT M00/M06 A3001 RMK A01 T10011061  RH  064%=      5-min Rain = 0
KTH1 100849Z 34009KT M00/M06 A3001 RMK A01 T10011062  RH  064%=      5-min Rain = 0
KTH1 100850Z 34009KT M00/M06 A3001 RMK A01 T10021061  RH  064%=      5-min Rain = 0
KTH1 100851Z 34013KT M00/M06 A3001 RMK A01 T10021062  RH  064%=      5-min Rain = 0
KTH1 100852Z 35012KT M00/M06 A3001 RMK A01 T10021063  RH  063%=      5-min Rain = 0
KTH1 100853Z 35010KT M00/M06 A3001 RMK A01 T10031063  RH  064%=      5-min Rain = 0
KTH1 100854Z 35012G17KT M00/M06 A3001 RMK A01 T10031064  RH  064%=      5-min Rain = 0
KTH1 100855Z 35011KT M00/M06 A3001 RMK A01 T10031064  RH  064%=      5-min Rain = 0
KTH1 100856Z 34009KT M00/M06 A3001 RMK A01 T10041064  RH  064%=      5-min Rain = 0
KTH1 100857Z 35010G15KT M00/M06 A3001 RMK A01 T10041064  RH  064%=      5-min Rain = 0
KTH1 100858Z 34012G18KT M00/M06 A3001 RMK A01 T10041064  RH  064%=      5-min Rain = 0
KTH1 100859Z 35011KT M01/M07 A3001 RMK A01 T10051065  RH  063%=      5-min Rain = 0
KTH1 100900Z 34012KT M01/M07 A3001 RMK A01 T10051065  RH  064%=      5-min Rain = 0
KTH1 100901Z 35012KT M01/M07 A3001 RMK A01 T10051065  RH  064%=      5-min Rain = 0
KTH1 100902Z 34012KT M01/M07 A3002 RMK A01 T10051066  RH  064%=      5-min Rain = 0
KTH1 100903Z 35011KT M01/M07 A3001 RMK A01 T10051065  RH  064%=      5-min Rain = 0
KTH1 100904Z 34010KT M01/M07 A3002 RMK A01 T10051065  RH  064%=      5-min Rain = 0
KTH1 100905Z 34009KT M01/M07 A3002 RMK A01 T10051065  RH  064%=      5-min Rain = 0
KTH1 100906Z 34010G15KT M01/M07 A3002 RMK A01 T10051065  RH  064%=      5-min Rain = 0
KTH1 100907Z 34010KT M01/M07 A3001 RMK A01 T10051065  RH  064%=      5-min Rain = 0
KTH1 100908Z 34010G15KT M01/M07 A3001 RMK A01 T10051065  RH  064%=      5-min Rain = 0
KTH1 100909Z 34008G14KT M01/M07 A3001 RMK A01 T10051065  RH  064%=      5-min Rain = 0
KTH1 100910Z 35014KT M01/M07 A3001 RMK A01 T10051065  RH  064%=      5-min Rain = 0
KTH1 100911Z 34013G18KT M00/M07 A3001 RMK A01 T10041066  RH  063%=      5-min Rain = 0
KTH1 100912Z 34011KT M01/M07 A3001 RMK A01 T10051066  RH  063%=      5-min Rain = 0
KTH1 100913Z 34011KT M01/M07 A3001 RMK A01 T10051067  RH  063%=      5-min Rain = 0
KTH1 100914Z 35013KT M00/M07 A3001 RMK A01 T10041066  RH  063%=      5-min Rain = 0
KTH1 100915Z 35013G20KT M01/M07 A3001 RMK A01 T10051066  RH  063%=      5-min Rain = 0
KTH1 100916Z 35011KT M01/M07 A3001 RMK A01 T10051066  RH  063%=      5-min Rain = 0
KTH1 100917Z 35012G17KT M01/M07 A3001 RMK A01 T10051066  RH  063%=      5-min Rain = 0
KTH1 100918Z 34007KT M01/M07 A3002 RMK A01 T10051066  RH  063%=      5-min Rain = 0
KTH1 100919Z 34010G16KT M00/M07 A3002 RMK A01 T10041065  RH  064%=      5-min Rain = 0
KTH1 100920Z 34011G18KT M00/M07 A3002 RMK A01 T10041066  RH  063%=      5-min Rain = 0
KTH1 100921Z 35012G18KT M01/M07 A3002 RMK A01 T10051067  RH  063%=      5-min Rain = 0
KTH1 100922Z 34012KT M01/M07 A3002 RMK A01 T10051067  RH  063%=      5-min Rain = 0
KTH1 100923Z 34012G18KT M01/M07 A3002 RMK A01 T10051067  RH  063%=      5-min Rain = 0
KTH1 100924Z 34012G18KT M01/M07 A3002 RMK A01 T10051067  RH  063%=      5-min Rain = 0
KTH1 100925Z 35013KT M01/M07 A3002 RMK A01 T10051067  RH  063%=      5-min Rain = 0
KTH1 100926Z 35014KT M01/M07 A3002 RMK A01 T10051067  RH  063%=      5-min Rain = 0
KTH1 100927Z 34014G20KT M01/M07 A3002 RMK A01 T10051067  RH  063%=      5-min Rain = 0
KTH1 100928Z 35013G22KT M01/M07 A3002 RMK A01 T10051067  RH  063%=      5-min Rain = 0
KTH1 100929Z 34013KT M01/M07 A3002 RMK A01 T10051067  RH  063%=      5-min Rain = 0
KTH1 100930Z 35010G16KT M01/M07 A3002 RMK A01 T10051067  RH  063%=      5-min Rain = 0
KTH1 100931Z 34014G19KT M01/M07 A3002 RMK A01 T10051067  RH  063%=      5-min Rain = 0
KTH1 100932Z 35016KT M01/M07 A3002 RMK A01 T10061068  RH  063%=      5-min Rain = 0
KTH1 100933Z 35017KT M01/M07 A3002 RMK A01 T10061069  RH  062%=      5-min Rain = 0
KTH1 100934Z 35014KT M01/M07 A3002 RMK A01 T10071069  RH  063%=      5-min Rain = 0
KTH1 100935Z 35013G19KT M01/M07 A3002 RMK A01 T10071069  RH  063%=      5-min Rain = 0
KTH1 100936Z 34011G17KT M01/M07 A3002 RMK A01 T10061068  RH  063%=      5-min Rain = 0
KTH1 100937Z 34013G20KT M01/M07 A3002 RMK A01 T10061068  RH  063%=      5-min Rain = 0
KTH1 100938Z 35013KT M01/M07 A3002 RMK A01 T10061068  RH  063%=      5-min Rain = 0
KTH1 100939Z 34013G18KT M01/M07 A3002 RMK A01 T10061068  RH  063%=      5-min Rain = 0
KTH1 100940Z 35015KT M01/M07 A3002 RMK A01 T10061069  RH  063%=      5-min Rain = 0
KTH1 100941Z 34012G19KT M01/M07 A3002 RMK A01 T10061069  RH  063%=      5-min Rain = 0
KTH1 100942Z 35014G19KT M01/M07 A3002 RMK A01 T10071069  RH  063%=      5-min Rain = 0
KTH1 100943Z 34012KT M01/M07 A3002 RMK A01 T10071068  RH  063%=      5-min Rain = 0
KTH1 100944Z 35016G21KT M01/M07 A3002 RMK A01 T10071069  RH  063%=      5-min Rain = 0
KTH1 100945Z 34017KT M01/M07 A3002 RMK A01 T10071070  RH  062%=      5-min Rain = 0
KTH1 100946Z 34014G22KT M01/M07 A3002 RMK A01 T10071070  RH  063%=      5-min Rain = 0
KTH1 100947Z 36013G19KT M01/M07 A3002 RMK A01 T10081070  RH  063%=      5-min Rain = 0
KTH1 100948Z 34015KT M01/M07 A3002 RMK A01 T10081069  RH  063%=      5-min Rain = 0
KTH1 100949Z 34012KT M01/M07 A3002 RMK A01 T10081071  RH  062%=      5-min Rain = 0
KTH1 100950Z 35015G22KT M01/M07 A3002 RMK A01 T10081071  RH  062%=      5-min Rain = 0
KTH1 100951Z 35016G23KT M01/M07 A3002 RMK A01 T10081071  RH  062%=      5-min Rain = 0
KTH1 100952Z 35016G24KT M01/M07 A3002 RMK A01 T10091071  RH  062%=      5-min Rain = 0
KTH1 100953Z 35016G24KT M01/M07 A3002 RMK A01 T10091072  RH  062%=      5-min Rain = 0
KTH1 100954Z 35017G22KT M01/M07 A3002 RMK A01 T10091073  RH  062%=      5-min Rain = 0
KTH1 100955Z 35015G21KT M01/M07 A3002 RMK A01 T10101073  RH  062%=      5-min Rain = 0
KTH1 100956Z 35015G20KT M01/M07 A3002 RMK A01 T10101073  RH  062%=      5-min Rain = 0
KTH1 100957Z 35016KT M01/M07 A3003 RMK A01 T10101073  RH  062%=      5-min Rain = 0
KTH1 100958Z 34014G20KT M01/M07 A3003 RMK A01 T10101073  RH  062%=      5-min Rain = 0
KTH1 100959Z 34017G24KT M01/M07 A3003 RMK A01 T10101073  RH  062%=      5-min Rain = 0
KTH1 101000Z 35016G21KT M01/M07 A3003 RMK A01 T10101074  RH  062%=      5-min Rain = 0
KTH1 101001Z 35014G19KT M01/M07 A3003 RMK A01 T10101073  RH  062%=      5-min Rain = 0
KTH1 101002Z 35013G19KT M01/M07 A3003 RMK A01 T10101074  RH  062%=      5-min Rain = 0
KTH1 101003Z 35016KT M01/M07 A3003 RMK A01 T10101073  RH  062%=      5-min Rain = 0
KTH1 101004Z 35018KT M01/M07 A3003 RMK A01 T10101073  RH  062%=      5-min Rain = 0
KTH1 101005Z 35017G23KT M01/M07 A3003 RMK A01 T10101074  RH  062%=      5-min Rain = 0
KTH1 101006Z 35011G19KT M01/M07 A3003 RMK A01 T10111074  RH  062%=      5-min Rain = 0
KTH1 101007Z 35015G21KT M01/M07 A3003 RMK A01 T10111073  RH  063%=      5-min Rain = 0
KTH1 101008Z 35020KT M01/M07 A3003 RMK A01 T10111074  RH  062%=      5-min Rain = 0
KTH1 101009Z 35017G23KT M01/M08 A3003 RMK A01 T10121075  RH  062%=      5-min Rain = 0
KTH1 101010Z 35017KT M01/M08 A3003 RMK A01 T10121075  RH  062%=      5-min Rain = 0
KTH1 101011Z 35013KT M01/M08 A3003 RMK A01 T10121075  RH  062%=      5-min Rain = 0
KTH1 101012Z 35012G17KT M01/M08 A3003 RMK A01 T10121075  RH  062%=      5-min Rain = 0
KTH1 101013Z 35013G18KT M01/M07 A3003 RMK A01 T10121074  RH  063%=      5-min Rain = 0
KTH1 101014Z 35015G20KT M01/M07 A3003 RMK A01 T10121074  RH  063%=      5-min Rain = 0
KTH1 101015Z 34013G20KT M01/M08 A3003 RMK A01 T10121075  RH  062%=      5-min Rain = 0
KTH1 101016Z 35013KT M01/M07 A3003 RMK A01 T10121074  RH  062%=      5-min Rain = 0
KTH1 101017Z 34013KT M01/M08 A3003 RMK A01 T10121075  RH  062%=      5-min Rain = 0
KTH1 101018Z 35012G17KT M01/M07 A3003 RMK A01 T10121074  RH  063%=      5-min Rain = 0
KTH1 101019Z 34014KT M01/M07 A3003 RMK A01 T10121074  RH  063%=      5-min Rain = 0
KTH1 101020Z 35017KT M01/M08 A3003 RMK A01 T10131075  RH  063%=      5-min Rain = 0
KTH1 101021Z 35016G24KT M01/M08 A3003 RMK A01 T10141077  RH  062%=      5-min Rain = 0
KTH1 101022Z 34015G21KT M01/M08 A3003 RMK A01 T10141077  RH  062%=      5-min Rain = 0
KTH1 101023Z 35017G23KT M02/M08 A3003 RMK A01 T10151077  RH  062%=      5-min Rain = 0
KTH1 101024Z 35017G25KT M02/M08 A3003 RMK A01 T10161079  RH  062%=      5-min Rain = 0
KTH1 101025Z 35015G22KT M02/M08 A3003 RMK A01 T10161078  RH  062%=      5-min Rain = 0
KTH1 101026Z 35014G21KT M02/M08 A3003 RMK A01 T10161078  RH  063%=      5-min Rain = 0
KTH1 101027Z 35013G21KT M02/M08 A3003 RMK A01 T10161078  RH  063%=      5-min Rain = 0
KTH1 101028Z 34015KT M02/M08 A3003 RMK A01 T10161077  RH  063%=      5-min Rain = 0
KTH1 101029Z 35012G17KT M02/M08 A3003 RMK A01 T10161077  RH  063%=      5-min Rain = 0
KTH1 101030Z 36017G22KT M02/M08 A3003 RMK A01 T10161078  RH  063%=      5-min Rain = 0
KTH1 101031Z 36016G21KT M02/M08 A3003 RMK A01 T10171080  RH  062%=      5-min Rain = 0
KTH1 101032Z 00013G18KT M02/M08 A3003 RMK A01 T10181080  RH  062%=      5-min Rain = 0
KTH1 101033Z 36014KT M02/M08 A3003 RMK A01 T10181079  RH  063%=      5-min Rain = 0
KTH1 101034Z 35017G22KT M02/M08 A3003 RMK A01 T10181079  RH  063%=      5-min Rain = 0
KTH1 101035Z 35019KT M02/M08 A3003 RMK A01 T10181079  RH  063%=      5-min Rain = 0
KTH1 101036Z 35017G22KT M02/M08 A3003 RMK A01 T10191081  RH  063%=      5-min Rain = 0
KTH1 101037Z 35014G22KT M02/M08 A3003 RMK A01 T10191080  RH  063%=      5-min Rain = 0
KTH1 101038Z 35016G22KT M02/M08 A3004 RMK A01 T10191079  RH  064%=      5-min Rain = 0
KTH1 101039Z 35017KT M02/M08 A3003 RMK A01 T10191080  RH  063%=      5-min Rain = 0
KTH1 101040Z 35016G22KT M02/M08 A3004 RMK A01 T10201080  RH  063%=      5-min Rain = 0
KTH1 101041Z 36013G21KT M02/M08 A3004 RMK A01 T10201079  RH  064%=      5-min Rain = 0
KTH1 101042Z 36017G22KT M02/M08 A3004 RMK A01 T10191079  RH  064%=      5-min Rain = 0
KTH1 101043Z 36018G23KT M02/M08 A3004 RMK A01 T10201080  RH  063%=      5-min Rain = 0
KTH1 101044Z 35019KT M02/M08 A3004 RMK A01 T10211082  RH  063%=      5-min Rain = 0
KTH1 101045Z 36016G25KT M02/M08 A3004 RMK A01 T10211082  RH  063%=      5-min Rain = 0
KTH1 101046Z 36016G22KT M02/M08 A3004 RMK A01 T10221082  RH  063%=      5-min Rain = 0
KTH1 101047Z 35014KT M02/M08 A3004 RMK A01 T10221082  RH  064%=      5-min Rain = 0
KTH1 101048Z 34009G17KT M02/M08 A3004 RMK A01 T10221081  RH  064%=      5-min Rain = 0
KTH1 101049Z 35013G18KT M02/M08 A3004 RMK A01 T10221080  RH  064%=      5-min Rain = 0
KTH1 101050Z 35011KT M02/M08 A3004 RMK A01 T10221081  RH  064%=      5-min Rain = 0
KTH1 101051Z 33011G19KT M02/M08 A3004 RMK A01 T10221081  RH  064%=      5-min Rain = 0
KTH1 101052Z 34016G21KT M02/M08 A3004 RMK A01 T10221081  RH  064%=      5-min Rain = 0
KTH1 101053Z 34015G21KT M02/M08 A3004 RMK A01 T10221083  RH  063%=      5-min Rain = 0
KTH1 101054Z 35013G19KT M02/M08 A3004 RMK A01 T10231083  RH  064%=      5-min Rain = 0
KTH1 101055Z 34015G20KT M02/M08 A3004 RMK A01 T10241083  RH  064%=      5-min Rain = 0
KTH1 101056Z 35016KT M02/M08 A3004 RMK A01 T10241083  RH  064%=      5-min Rain = 0
KTH1 101057Z 35018G24KT M02/M08 A3004 RMK A01 T10241084  RH  064%=      5-min Rain = 0
KTH1 101058Z 35018G23KT M02/M08 A3004 RMK A01 T10241084  RH  064%=      5-min Rain = 0
KTH1 101059Z 35018G23KT M03/M08 A3005 RMK A01 T10251084  RH  064%=      5-min Rain = 0
KTH1 101100Z 35016G21KT M03/M08 A3005 RMK A01 T10251084  RH  064%=      5-min Rain = 0
KTH1 101101Z 35015KT M03/M08 A3005 RMK A01 T10251083  RH  064%=      5-min Rain = 0
KTH1 101102Z 36015G21KT M03/M08 A3005 RMK A01 T10251083  RH  064%=      5-min Rain = 0
KTH1 101103Z 35014G19KT M03/M08 A3005 RMK A01 T10251084  RH  064%=      5-min Rain = 0
KTH1 101104Z 34014G19KT M03/M08 A3005 RMK A01 T10251084  RH  064%=      5-min Rain = 0
KTH1 101105Z 34013KT M03/M08 A3005 RMK A01 T10251084  RH  064%=      5-min Rain = 0
KTH1 101106Z 35011G16KT M03/M08 A3005 RMK A01 T10261084  RH  064%=      5-min Rain = 0
KTH1 101107Z 34014G21KT M03/M09 A3005 RMK A01 T10251085  RH  064%=      5-min Rain = 0
KTH1 101108Z 34014KT M03/M09 A3005 RMK A01 T10261085  RH  064%=      5-min Rain = 0
KTH1 101109Z 35017G24KT M03/M09 A3005 RMK A01 T10261085  RH  064%=      5-min Rain = 0
KTH1 101110Z 35018G23KT M03/M09 A3005 RMK A01 T10271086  RH  064%=      5-min Rain = 0
KTH1 101111Z 34016G21KT M03/M09 A3005 RMK A01 T10271086  RH  064%=      5-min Rain = 0
KTH1 101112Z 35012G17KT M03/M09 A3005 RMK A01 T10271085  RH  064%=      5-min Rain = 0
KTH1 101113Z 35012G18KT M03/M09 A3005 RMK A01 T10271085  RH  064%=      5-min Rain = 0
KTH1 101114Z 35015G20KT M03/M09 A3005 RMK A01 T10271086  RH  064%=      5-min Rain = 0
KTH1 101115Z 36012KT M03/M09 A3005 RMK A01 T10281087  RH  064%=      5-min Rain = 0
KTH1 101116Z 35013G18KT M03/M09 A3005 RMK A01 T10281087  RH  064%=      5-min Rain = 0
KTH1 101117Z 35011KT M03/M09 A3005 RMK A01 T10281086  RH  064%=      5-min Rain = 0
KTH1 101118Z 34013G18KT M03/M09 A3005 RMK A01 T10281086  RH  064%=      5-min Rain = 0
KTH1 101119Z 34012G17KT M03/M09 A3005 RMK A01 T10281086  RH  064%=      5-min Rain = 0
KTH1 101120Z 35011G17KT M03/M09 A3005 RMK A01 T10281086  RH  065%=      5-min Rain = 0
KTH1 101121Z 34015KT M03/M09 A3005 RMK A01 T10281086  RH  065%=      5-min Rain = 0
KTH1 101122Z 34012G17KT M03/M09 A3005 RMK A01 T10281086  RH  064%=      5-min Rain = 0
KTH1 101123Z 35011G16KT M03/M09 A3005 RMK A01 T10281086  RH  065%=      5-min Rain = 0
KTH1 101124Z 35014G19KT M03/M09 A3005 RMK A01 T10281086  RH  065%=      5-min Rain = 0
KTH1 101125Z 35015G20KT M03/M09 A3005 RMK A01 T10281086  RH  064%=      5-min Rain = 0
KTH1 101126Z 35015G24KT M03/M09 A3005 RMK A01 T10291087  RH  064%=      5-min Rain = 0
KTH1 101127Z 35013G18KT M03/M09 A3006 RMK A01 T10291088  RH  064%=      5-min Rain = 0
KTH1 101128Z 36014KT M03/M09 A3006 RMK A01 T10301088  RH  064%=      5-min Rain = 0
KTH1 101129Z 35010KT M03/M09 A3006 RMK A01 T10301088  RH  064%=      5-min Rain = 0
KTH1 101130Z 34009G16KT M03/M09 A3006 RMK A01 T10301087  RH  065%=      5-min Rain = 0
KTH1 101131Z 34008KT M03/M09 A3006 RMK A01 T10301087  RH  065%=      5-min Rain = 0
KTH1 101132Z 35009G14KT M03/M09 A3006 RMK A01 T10291086  RH  065%=      5-min Rain = 0
KTH1 101133Z 35011G16KT M03/M09 A3006 RMK A01 T10291087  RH  064%=      5-min Rain = 0
KTH1 101134Z 34013G19KT M03/M09 A3006 RMK A01 T10301088  RH  064%=      5-min Rain = 0
KTH1 101135Z 34015KT M03/M09 A3006 RMK A01 T10301088  RH  064%=      5-min Rain = 0
KTH1 101136Z 35011KT M03/M09 A3006 RMK A01 T10311088  RH  065%=      5-min Rain = 0
KTH1 101137Z 35012KT M03/M09 A3006 RMK A01 T10311088  RH  065%=      5-min Rain = 0
KTH1 101138Z 35014G20KT M03/M09 A3006 RMK A01 T10311088  RH  065%=      5-min Rain = 0
KTH1 101139Z 35014G20KT M03/M09 A3006 RMK A01 T10311089  RH  064%=      5-min Rain = 0
KTH1 101140Z 36014KT M03/M09 A3006 RMK A01 T10321090  RH  064%=      5-min Rain = 0
KTH1 101141Z 36012KT M03/M09 A3006 RMK A01 T10321090  RH  064%=      5-min Rain = 0
KTH1 101142Z 35018G23KT M03/M09 A3006 RMK A01 T10321089  RH  065%=      5-min Rain = 0
KTH1 101143Z 36014G19KT M03/M09 A3006 RMK A01 T10321089  RH  065%=      5-min Rain = 0
KTH1 101144Z 35012G17KT M03/M09 A3006 RMK A01 T10321089  RH  065%=      5-min Rain = 0
KTH1 101145Z 34008KT M03/M09 A3006 RMK A01 T10321088  RH  065%=      5-min Rain = 0
KTH1 101146Z 34010KT M03/M09 A3006 RMK A01 T10321087  RH  066%=      5-min Rain = 0
KTH1 101147Z 34012KT M03/M09 A3006 RMK A01 T10321088  RH  065%=      5-min Rain = 0
KTH1 101148Z 35012KT M03/M09 A3006 RMK A01 T10321089  RH  065%=      5-min Rain = 0
KTH1 101149Z 35009G14KT M03/M09 A3006 RMK A01 T10321089  RH  065%=      5-min Rain = 0
KTH1 101150Z 35012KT M03/M09 A3006 RMK A01 T10321088  RH  065%=      5-min Rain = 0
KTH1 101151Z 34012KT M03/M09 A3006 RMK A01 T10321089  RH  065%=      5-min Rain = 0
KTH1 101152Z 35014KT M03/M09 A3006 RMK A01 T10321089  RH  065%=      5-min Rain = 0
KTH1 101153Z 35013KT M03/M09 A3006 RMK A01 T10321089  RH  065%=      5-min Rain = 0
KTH1 101154Z 35012KT M03/M09 A3006 RMK A01 T10331090  RH  065%=      5-min Rain = 0
KTH1 101155Z 35014KT M03/M09 A3006 RMK A01 T10331090  RH  065%=      5-min Rain = 0
KTH1 101156Z 34015KT M03/M09 A3006 RMK A01 T10331090  RH  065%=      5-min Rain = 0
KTH1 101157Z 35009G14KT M03/M09 A3006 RMK A01 T10331090  RH  065%=      5-min Rain = 0
KTH1 101158Z 35010G15KT M03/M09 A3006 RMK A01 T10331089  RH  065%=      5-min Rain = 0
KTH1 101159Z 34009G14KT M03/M09 A3006 RMK A01 T10331089  RH  065%=      5-min Rain = 0
KTH1 101200Z 35012KT M03/M09 A3006 RMK A01 T10331089  RH  065%=      5-min Rain = 0
KTH1 101201Z 35010G15KT M03/M09 A3006 RMK A01 T10331090  RH  065%=      5-min Rain = 0
KTH1 101202Z 34010G15KT M03/M09 A3006 RMK A01 T10331089  RH  065%=      5-min Rain = 0
KTH1 101203Z 34009G14KT M03/M09 A3006 RMK A01 T10331089  RH  066%=      5-min Rain = 0
KTH1 101204Z 35012KT M03/M09 A3006 RMK A01 T10331089  RH  066%=      5-min Rain = 0
KTH1 101205Z 34014KT M03/M09 A3006 RMK A01 T10331089  RH  065%=      5-min Rain = 0
KTH1 101206Z 35012KT M03/M09 A3006 RMK A01 T10331089  RH  065%=      5-min Rain = 0
KTH1 101207Z 34012G18KT M03/M09 A3006 RMK A01 T10331089  RH  065%=      5-min Rain = 0
KTH1 101208Z 34011G16KT M03/M09 A3006 RMK A01 T10331089  RH  065%=      5-min Rain = 0
KTH1 101209Z 35011KT M03/M09 A3006 RMK A01 T10341088  RH  066%=      5-min Rain = 0
KTH1 101210Z 35012G17KT M03/M09 A3006 RMK A01 T10341089  RH  066%=      5-min Rain = 0
KTH1 101211Z 35009KT M03/M09 A3006 RMK A01 T10341088  RH  066%=      5-min Rain = 0
KTH1 101212Z 35011KT M03/M09 A3006 RMK A01 T10341088  RH  066%=      5-min Rain = 0
KTH1 101213Z 36011G17KT M03/M09 A3006 RMK A01 T10341088  RH  066%=      5-min Rain = 0
KTH1 101214Z 36012KT M03/M09 A3006 RMK A01 T10341088  RH  066%=      5-min Rain = 0
KTH1 101215Z 35010KT M03/M09 A3007 RMK A01 T10341087  RH  067%=      5-min Rain = 0
KTH1 101216Z 34013KT M03/M09 A3007 RMK A01 T10341087  RH  067%=      5-min Rain = 0
KTH1 101217Z 34012KT M03/M09 A3007 RMK A01 T10341087  RH  067%=      5-min Rain = 0
KTH1 101218Z 34014KT M03/M09 A3007 RMK A01 T10341087  RH  067%=      5-min Rain = 0
KTH1 101219Z 34012KT M04/M09 A3007 RMK A01 T10351088  RH  067%=      5-min Rain = 0
KTH1 101220Z 35014G21KT M04/M09 A3007 RMK A01 T10351088  RH  067%=      5-min Rain = 0
KTH1 101221Z 35012G17KT M04/M09 A3007 RMK A01 T10351088  RH  067%=      5-min Rain = 0
KTH1 101222Z 34013KT M04/M09 A3007 RMK A01 T10361089  RH  067%=      5-min Rain = 0
KTH1 101223Z 35010KT M04/M09 A3007 RMK A01 T10361090  RH  066%=      5-min Rain = 0
KTH1 101224Z 35010KT M04/M09 A3007 RMK A01 T10361089  RH  067%=      5-min Rain = 0
KTH1 101225Z 35011G16KT M04/M09 A3007 RMK A01 T10361088  RH  067%=      5-min Rain = 0
KTH1 101226Z 36011G16KT M04/M09 A3007 RMK A01 T10361089  RH  067%=      5-min Rain = 0
KTH1 101227Z 35014KT M04/M09 A3007 RMK A01 T10361089  RH  066%=      5-min Rain = 0
KTH1 101228Z 34013KT M04/M09 A3007 RMK A01 T10361090  RH  066%=      5-min Rain = 0
KTH1 101229Z 34012KT M04/M09 A3007 RMK A01 T10361090  RH  066%=      5-min Rain = 0
KTH1 101230Z 34014G19KT M04/M09 A3008 RMK A01 T10361089  RH  067%=      5-min Rain = 0
KTH1 101231Z 35012KT M04/M09 A3008 RMK A01 T10361089  RH  067%=      5-min Rain = 0
KTH1 101232Z 34013KT M04/M09 A3008 RMK A01 T10361087  RH  068%=      5-min Rain = 0
KTH1 101233Z 35014G19KT M04/M09 A3008 RMK A01 T10361086  RH  068%=      5-min Rain = 0
KTH1 101234Z 34013G18KT M04/M09 A3008 RMK A01 T10371086  RH  069%=      5-min Rain = 0
KTH1 101235Z 00011KT M04/M09 A3008 RMK A01 T10371085  RH  069%=      5-min Rain = 0
KTH1 101236Z 00009KT M04/M09 A3008 RMK A01 T10381085  RH  070%=      5-min Rain = 0
KTH1 101237Z 35011KT M04/M09 A3008 RMK A01 T10381085  RH  070%=      5-min Rain = 0
KTH1 101238Z 34007KT M04/M08 A3008 RMK A01 T10381084  RH  071%=      5-min Rain = 0
KTH1 101239Z 35013KT M04/M08 A3008 RMK A01 T10381082  RH  072%=      5-min Rain = 0
KTH1 101240Z 34012G17KT M04/M08 A3008 RMK A01 T10371083  RH  071%=      5-min Rain = 0
KTH1 101241Z 34013G18KT M04/M08 A3008 RMK A01 T10371084  RH  070%=      5-min Rain = 0
KTH1 101242Z 35011KT M04/M09 A3008 RMK A01 T10381085  RH  070%=      5-min Rain = 0
KTH1 101243Z 35009KT M04/M09 A3008 RMK A01 T10381085  RH  070%=      5-min Rain = 0
KTH1 101244Z 36007KT M04/M09 A3008 RMK A01 T10381085  RH  070%=      5-min Rain = 0
KTH1 101245Z 36007KT M04/M09 A3008 RMK A01 T10381085  RH  070%=      5-min Rain = 0
KTH1 101246Z 34011G16KT M04/M09 A3008 RMK A01 T10381085  RH  070%=      5-min Rain = 0
KTH1 101247Z 35009G16KT M04/M09 A3008 RMK A01 T10371086  RH  069%=      5-min Rain = 0
KTH1 101248Z 34010G15KT M04/M09 A3008 RMK A01 T10381085  RH  070%=      5-min Rain = 0
KTH1 101249Z 35011KT M04/M09 A3008 RMK A01 T10381085  RH  070%=      5-min Rain = 0
KTH1 101250Z 35011G20KT M04/M09 A3008 RMK A01 T10381085  RH  070%=      5-min Rain = 0
KTH1 101251Z 35013G18KT M04/M08 A3008 RMK A01 T10381084  RH  070%=      5-min Rain = 0
KTH1 101252Z 35016KT M04/M09 A3008 RMK A01 T10381085  RH  070%=      5-min Rain = 0
KTH1 101253Z 35013KT M04/M09 A3008 RMK A01 T10391086  RH  070%=      5-min Rain = 0
KTH1 101254Z 34015KT M04/M09 A3008 RMK A01 T10391086  RH  070%=      5-min Rain = 0
KTH1 101255Z 00012G17KT M04/M09 A3008 RMK A01 T10391085  RH  071%=      5-min Rain = 0
KTH1 101256Z 36011KT M04/M08 A3008 RMK A01 T10401084  RH  071%=      5-min Rain = 0
KTH1 101257Z 36009KT M04/M08 A3008 RMK A01 T10401083  RH  072%=      5-min Rain = 0
KTH1 101258Z 36011G17KT M04/M08 A3008 RMK A01 T10401082  RH  073%=      5-min Rain = 0
KTH1 101259Z 35011KT M04/M08 A3008 RMK A01 T10401081  RH  073%=      5-min Rain = 0
KTH1 101300Z 35011KT M04/M08 A3008 RMK A01 T10401082  RH  073%=      5-min Rain = 0
KTH1 101301Z 35010KT M04/M08 A3008 RMK A01 T10391081  RH  073%=      5-min Rain = 0
KTH1 101302Z 34009G15KT M04/M08 A3008 RMK A01 T10391080  RH  073%=      5-min Rain = 0
KTH1 101303Z 35011KT M04/M08 A3008 RMK A01 T10391080  RH  073%=      5-min Rain = 0
KTH1 101304Z 35012G18KT M04/M08 A3008 RMK A01 T10391081  RH  072%=      5-min Rain = 0
KTH1 101305Z 35011G17KT M04/M08 A3008 RMK A01 T10391081  RH  072%=      5-min Rain = 0
KTH1 101306Z 35015G20KT M04/M08 A3007 RMK A01 T10391081  RH  072%=      5-min Rain = 0
KTH1 101307Z 35016G22KT M04/M08 A3008 RMK A01 T10401083  RH  072%=      5-min Rain = 0
KTH1 101308Z 34015G20KT M04/M08 A3008 RMK A01 T10401083  RH  072%=      5-min Rain = 0
KTH1 101309Z 35014G19KT M04/M08 A3008 RMK A01 T10401082  RH  073%=      5-min Rain = 0
KTH1 101310Z 36010KT M04/M08 A3008 RMK A01 T10401081  RH  073%=      5-min Rain = 0
KTH1 101311Z 35013KT M04/M08 A3008 RMK A01 T10401081  RH  073%=      5-min Rain = 0
KTH1 101312Z 35016KT M04/M08 A3008 RMK A01 T10401081  RH  073%=      5-min Rain = 0
KTH1 101313Z 36014KT M04/M08 A3008 RMK A01 T10411082  RH  073%=      5-min Rain = 0
KTH1 101314Z 35013KT M04/M08 A3008 RMK A01 T10411082  RH  073%=      5-min Rain = 0
KTH1 101315Z 35010KT M04/M08 A3008 RMK A01 T10421083  RH  073%=      5-min Rain = 0
KTH1 101316Z 35012KT M04/M08 A3008 RMK A01 T10421084  RH  072%=      5-min Rain = 0
KTH1 101317Z 35011G16KT M04/M09 A3008 RMK A01 T10421085  RH  072%=      5-min Rain = 0
KTH1 101318Z 36010KT M04/M08 A3008 RMK A01 T10421084  RH  072%=      5-min Rain = 0
KTH1 101319Z 35009G14KT M04/M08 A3008 RMK A01 T10411084  RH  072%=      5-min Rain = 0
KTH1 101320Z 35011KT M04/M08 A3008 RMK A01 T10411084  RH  072%=      5-min Rain = 0
KTH1 101321Z 35011KT M04/M08 A3008 RMK A01 T10411084  RH  072%=      5-min Rain = 0
KTH1 101322Z 35009KT M04/M08 A3008 RMK A01 T10411084  RH  072%=      5-min Rain = 0
KTH1 101323Z 35007KT M04/M09 A3008 RMK A01 T10411085  RH  072%=      5-min Rain = 0
KTH1 101324Z 35008KT M04/M08 A3008 RMK A01 T10411084  RH  072%=      5-min Rain = 0
KTH1 101325Z 35010KT M04/M08 A3008 RMK A01 T10401083  RH  072%=      5-min Rain = 0
KTH1 101326Z 35011KT M04/M08 A3008 RMK A01 T10401084  RH  072%=      5-min Rain = 0
KTH1 101327Z 36013G19KT M04/M09 A3008 RMK A01 T10411085  RH  071%=      5-min Rain = 0
KTH1 101328Z 34015KT M04/M09 A3008 RMK A01 T10411086  RH  071%=      5-min Rain = 0
KTH1 101329Z 34014G19KT M04/M09 A3008 RMK A01 T10421085  RH  072%=      5-min Rain = 0
KTH1 101330Z 34011KT M04/M08 A3008 RMK A01 T10421084  RH  072%=      5-min Rain = 0
KTH1 101331Z 34013KT M04/M08 A3008 RMK A01 T10421084  RH  072%=      5-min Rain = 0
KTH1 101332Z 35009G14KT M04/M09 A3008 RMK A01 T10421085  RH  072%=      5-min Rain = 0
KTH1 101333Z 34010G15KT M04/M09 A3008 RMK A01 T10411085  RH  072%=      5-min Rain = 0
KTH1 101334Z 34011KT M04/M09 A3008 RMK A01 T10421085  RH  072%=      5-min Rain = 0
KTH1 101335Z 35011KT M04/M09 A3008 RMK A01 T10421086  RH  071%=      5-min Rain = 0
KTH1 101336Z 35009G14KT M04/M09 A3008 RMK A01 T10411086  RH  071%=      5-min Rain = 0
KTH1 101337Z 00009KT M04/M09 A3008 RMK A01 T10421086  RH  071%=      5-min Rain = 0
KTH1 101338Z 00009KT M04/M09 A3008 RMK A01 T10411086  RH  071%=      5-min Rain = 0
KTH1 101339Z 01011KT M04/M09 A3008 RMK A01 T10421087  RH  071%=      5-min Rain = 0
KTH1 101340Z 01009KT M04/M09 A3008 RMK A01 T10441088  RH  072%=      5-min Rain = 0
KTH1 101341Z 00010KT M05/M09 A3008 RMK A01 T10451087  RH  072%=      5-min Rain = 0
KTH1 101342Z 36011KT M05/M09 A3008 RMK A01 T10451087  RH  072%=      5-min Rain = 0
KTH1 101343Z 01012KT M05/M09 A3008 RMK A01 T10451087  RH  073%=      5-min Rain = 0
KTH1 101344Z 36011G16KT M05/M09 A3008 RMK A01 T10451086  RH  073%=      5-min Rain = 0
KTH1 101345Z 01011KT M05/M09 A3008 RMK A01 T10461086  RH  073%=      5-min Rain = 0
KTH1 101346Z 01010G15KT M05/M09 A3008 RMK A01 T10461086  RH  074%=      5-min Rain = 0
KTH1 101347Z 01011KT M05/M09 A3008 RMK A01 T10461086  RH  074%=      5-min Rain = 0
KTH1 101348Z 35010KT M05/M09 A3008 RMK A01 T10471086  RH  074%=      5-min Rain = 0
KTH1 101349Z 00010KT M05/M09 A3008 RMK A01 T10471086  RH  074%=      5-min Rain = 0
KTH1 101350Z 00012G17KT M05/M09 A3008 RMK A01 T10471086  RH  074%=      5-min Rain = 0
KTH1 101351Z 36008G13KT M05/M09 A3008 RMK A01 T10471086  RH  074%=      5-min Rain = 0
KTH1 101352Z 01009KT M05/M09 A3008 RMK A01 T10471086  RH  074%=      5-min Rain = 0
KTH1 101353Z 01008KT M05/M09 A3008 RMK A01 T10471086  RH  074%=      5-min Rain = 0
KTH1 101354Z 01010G15KT M05/M09 A3008 RMK A01 T10471086  RH  074%=      5-min Rain = 0
KTH1 101355Z 36010G15KT M05/M09 A3008 RMK A01 T10471086  RH  074%=      5-min Rain = 0
KTH1 101356Z 36011KT M05/M09 A3008 RMK A01 T10471086  RH  074%=      5-min Rain = 0
KTH1 101357Z 35009G14KT M05/M09 A3008 RMK A01 T10471085  RH  074%=      5-min Rain = 0
KTH1 101358Z 36008KT M05/M09 A3008 RMK A01 T10471085  RH  075%=      5-min Rain = 0
KTH1 101359Z 36010KT M05/M08 A3008 RMK A01 T10471084  RH  075%=      5-min Rain = 0
KTH1 101400Z 00012KT M05/M08 A3008 RMK A01 T10471083  RH  076%=      5-min Rain = 0
KTH1 101401Z 36010G17KT M05/M08 A3008 RMK A01 T10481083  RH  076%=      5-min Rain = 0
KTH1 101402Z 01010G15KT M05/M08 A3009 RMK A01 T10481082  RH  077%=      5-min Rain = 0
KTH1 101403Z 35009KT M05/M08 A3009 RMK A01 T10481082  RH  077%=      5-min Rain = 0
KTH1 101404Z 00010KT M05/M08 A3009 RMK A01 T10491082  RH  078%=      5-min Rain = 0
KTH1 101405Z 36010KT M05/M08 A3009 RMK A01 T10491082  RH  078%=      5-min Rain = 0
KTH1 101406Z 36010KT M05/M08 A3009 RMK A01 T10491082  RH  078%=      5-min Rain = 0
KTH1 101407Z 34013KT M05/M08 A3009 RMK A01 T10491081  RH  078%=      5-min Rain = 0
KTH1 101408Z 36011G17KT M05/M08 A3009 RMK A01 T10491081  RH  078%=      5-min Rain = 0
KTH1 101409Z 36013KT M05/M08 A3009 RMK A01 T10491081  RH  078%=      5-min Rain = 0
KTH1 101410Z 35013G18KT M05/M08 A3009 RMK A01 T10501081  RH  079%=      5-min Rain = 0
KTH1 101411Z 36015KT M05/M08 A3009 RMK A01 T10501081  RH  079%=      5-min Rain = 0
KTH1 101412Z 35014G19KT M05/M08 A3009 RMK A01 T10501080  RH  080%=      5-min Rain = 0
KTH1 101413Z 36013KT M05/M08 A3009 RMK A01 T10501079  RH  080%=      5-min Rain = 0
KTH1 101414Z 34011KT M05/M08 A3009 RMK A01 T10501078  RH  081%=      5-min Rain = 0
KTH1 101415Z 35009G15KT M05/M08 A3009 RMK A01 T10501077  RH  081%=      5-min Rain = 0
KTH1 101416Z 35011KT M05/M08 A3009 RMK A01 T10491077  RH  081%=      5-min Rain = 0
KTH1 101417Z 36012KT M05/M08 A3009 RMK A01 T10491078  RH  081%=      5-min Rain = 0
KTH1 101418Z 35010KT M05/M08 A3009 RMK A01 T10491078  RH  080%=      5-min Rain = 0
KTH1 101419Z 35007G12KT M05/M08 A3009 RMK A01 T10491078  RH  080%=      5-min Rain = 0
KTH1 101420Z 00010KT M05/M08 A3009 RMK A01 T10491078  RH  080%=      5-min Rain = 0
KTH1 101421Z 36011KT M05/M08 A3009 RMK A01 T10491079  RH  080%=      5-min Rain = 0
KTH1 101422Z 01008KT M05/M08 A3009 RMK A01 T10491080  RH  079%=      5-min Rain = 0
KTH1 101423Z 36006G11KT M05/M08 A3009 RMK A01 T10491080  RH  079%=      5-min Rain = 0
KTH1 101424Z 36010G15KT M05/M08 A3009 RMK A01 T10491079  RH  080%=      5-min Rain = 0
KTH1 101425Z 00010KT M05/M08 A3009 RMK A01 T10491079  RH  079%=      5-min Rain = 0
KTH1 101426Z 35012KT M05/M08 A3009 RMK A01 T10501080  RH  079%=      5-min Rain = 0
KTH1 101427Z 36011G17KT M05/M08 A3009 RMK A01 T10501080  RH  080%=      5-min Rain = 0
KTH1 101428Z 35014KT M05/M08 A3009 RMK A01 T10501080  RH  080%=      5-min Rain = 0
KTH1 101429Z 36008KT M05/M08 A3009 RMK A01 T10501079  RH  080%=      5-min Rain = 0
KTH1 101430Z 36008G14KT M05/M08 A3009 RMK A01 T10501079  RH  080%=      5-min Rain = 0
KTH1 101431Z 35013G18KT M05/M08 A3009 RMK A01 T10491079  RH  080%=      5-min Rain = 0
KTH1 101432Z 36013G19KT M05/M08 A3009 RMK A01 T10491079  RH  080%=      5-min Rain = 0
KTH1 101433Z 36011KT M05/M08 A3009 RMK A01 T10501080  RH  079%=      5-min Rain = 0
KTH1 101434Z 35012KT M05/M08 A3009 RMK A01 T10491081  RH  079%=      5-min Rain = 0
KTH1 101435Z 36012G18KT M05/M08 A3009 RMK A01 T10491081  RH  078%=      5-min Rain = 0
KTH1 101436Z 35009G15KT M05/M08 A3009 RMK A01 T10501082  RH  078%=      5-min Rain = 0
KTH1 101437Z 00010KT M05/M08 A3009 RMK A01 T10491081  RH  079%=      5-min Rain = 0
KTH1 101438Z 00009KT M05/M08 A3009 RMK A01 T10491082  RH  078%=      5-min Rain = 0
KTH1 101439Z 35011KT M05/M08 A3009 RMK A01 T10491081  RH  078%=      5-min Rain = 0
KTH1 101440Z 00012G17KT M05/M08 A3009 RMK A01 T10491081  RH  079%=      5-min Rain = 0
KTH1 101441Z 00011KT M05/M08 A3009 RMK A01 T10491080  RH  079%=      5-min Rain = 0
KTH1 101442Z 36013KT M05/M08 A3009 RMK A01 T10491080  RH  079%=      5-min Rain = 0
KTH1 101443Z 36011KT M05/M08 A3009 RMK A01 T10491080  RH  079%=      5-min Rain = 0
KTH1 101444Z 36012KT M05/M08 A3009 RMK A01 T10491079  RH  079%=      5-min Rain = 0
KTH1 101445Z 36010KT M05/M08 A3009 RMK A01 T10491079  RH  079%=      5-min Rain = 0
KTH1 101446Z 36010G16KT M05/M08 A3009 RMK A01 T10491078  RH  080%=      5-min Rain = 0
KTH1 101447Z 01008G13KT M05/M08 A3009 RMK A01 T10481078  RH  079%=      5-min Rain = 0
KTH1 101448Z 00008KT M05/M08 A3009 RMK A01 T10481079  RH  079%=      5-min Rain = 0
KTH1 101449Z 01009KT M05/M08 A3009 RMK A01 T10481078  RH  079%=      5-min Rain = 0
KTH1 101450Z 01009G14KT M05/M08 A3009 RMK A01 T10471078  RH  079%=      5-min Rain = 0
KTH1 101451Z 01011G16KT M05/M08 A3009 RMK A01 T10471079  RH  079%=      5-min Rain = 0
KTH1 101452Z 01012KT M05/M08 A3009 RMK A01 T10481079  RH  078%=      5-min Rain = 0
KTH1 101453Z 35013KT M05/M08 A3009 RMK A01 T10471079  RH  078%=      5-min Rain = 0
KTH1 101454Z 00011KT M05/M08 A301 RMK A01 T10471079  RH  078%=      5-min Rain = 0
KTH1 101455Z 00010G15KT M05/M08 A301 RMK A01 T10481079  RH  078%=      5-min Rain = 0
KTH1 101456Z 00009KT M05/M08 A3009 RMK A01 T10471079  RH  078%=      5-min Rain = 0
KTH1 101457Z 01009G14KT M05/M08 A301 RMK A01 T10471080  RH  078%=      5-min Rain = 0
KTH1 101458Z 35007G12KT M05/M08 A301 RMK A01 T10471080  RH  078%=      5-min Rain = 0
KTH1 101459Z 36012G17KT M05/M08 A301 RMK A01 T10461079  RH  078%=      5-min Rain = 0
KTH1 101500Z 35011KT M05/M08 A301 RMK A01 T10461079  RH  078%=      5-min Rain = 0
KTH1 101501Z 34009KT M05/M08 A301 RMK A01 T10461079  RH  078%=      5-min Rain = 0
KTH1 101502Z 35011KT M05/M08 A301 RMK A01 T10461079  RH  078%=      5-min Rain = 0
KTH1 101503Z 35009KT M05/M08 A301 RMK A01 T10461079  RH  078%=      5-min Rain = 0
KTH1 101504Z 36011KT M05/M08 A301 RMK A01 T10451078  RH  078%=      5-min Rain = 0
KTH1 101505Z 35007KT M05/M08 A301 RMK A01 T10451078  RH  078%=      5-min Rain = 0
KTH1 101506Z 36008G13KT M05/M08 A301 RMK A01 T10451078  RH  078%=      5-min Rain = 0
KTH1 101507Z 35011KT M04/M08 A301 RMK A01 T10441078  RH  077%=      5-min Rain = 0
KTH1 101508Z 35012KT M04/M08 A301 RMK A01 T10441078  RH  077%=      5-min Rain = 0
KTH1 101509Z 35010KT M04/M08 A301 RMK A01 T10441078  RH  077%=      5-min Rain = 0
KTH1 101510Z 35010G15KT M04/M08 A301 RMK A01 T10441077  RH  077%=      5-min Rain = 0
KTH1 101511Z 35010KT M04/M08 A301 RMK A01 T10441078  RH  077%=      5-min Rain = 0
KTH1 101512Z 35010KT M04/M08 A301 RMK A01 T10441078  RH  077%=      5-min Rain = 0
KTH1 101513Z 00006KT M04/M08 A301 RMK A01 T10441077  RH  077%=      5-min Rain = 0
KTH1 101514Z 35010KT M04/M08 A301 RMK A01 T10441077  RH  077%=      5-min Rain = 0
KTH1 101515Z 36008KT M04/M08 A3011 RMK A01 T10431078  RH  077%=      5-min Rain = 0
KTH1 101516Z 36006KT M04/M08 A3011 RMK A01 T10431077  RH  077%=      5-min Rain = 0
KTH1 101517Z 01007G13KT M04/M08 A301 RMK A01 T10421077  RH  077%=      5-min Rain = 0
KTH1 101518Z 35010KT M04/M08 A3011 RMK A01 T10421078  RH  076%=      5-min Rain = 0
KTH1 101519Z 01008G13KT M04/M08 A3011 RMK A01 T10421079  RH  076%=      5-min Rain = 0
KTH1 101520Z 01009KT M04/M08 A3011 RMK A01 T10421079  RH  075%=      5-min Rain = 0
KTH1 101521Z 01007G12KT M04/M08 A3011 RMK A01 T10431080  RH  075%=      5-min Rain = 0
KTH1 101522Z 00007KT M04/M08 A3011 RMK A01 T10431079  RH  076%=      5-min Rain = 0
KTH1 101523Z 01007G13KT M04/M08 A3011 RMK A01 T10421079  RH  075%=      5-min Rain = 0
KTH1 101524Z 01008KT M04/M08 A3011 RMK A01 T10421080  RH  075%=      5-min Rain = 0
KTH1 101525Z 01009KT M04/M08 A3011 RMK A01 T10411081  RH  074%=      5-min Rain = 0
KTH1 101526Z 01009KT M04/M08 A3011 RMK A01 T10421083  RH  073%=      5-min Rain = 0
KTH1 101527Z 01007KT M04/M08 A3011 RMK A01 T10421083  RH  073%=      5-min Rain = 0
KTH1 101528Z 02008KT M04/M08 A3011 RMK A01 T10421083  RH  073%=      5-min Rain = 0
KTH1 101529Z 02008KT M04/M08 A3011 RMK A01 T10421083  RH  073%=      5-min Rain = 0
KTH1 101530Z 01007KT M04/M08 A3011 RMK A01 T10411082  RH  073%=      5-min Rain = 0
KTH1 101531Z 01007KT M04/M08 A3011 RMK A01 T10411082  RH  073%=      5-min Rain = 0
KTH1 101532Z 02007KT M04/M08 A3011 RMK A01 T10411082  RH  073%=      5-min Rain = 0
KTH1 101533Z 01007KT M04/M08 A3011 RMK A01 T10411083  RH  073%=      5-min Rain = 0
KTH1 101534Z 02009KT M04/M08 A3011 RMK A01 T10401083  RH  072%=      5-min Rain = 0
KTH1 101535Z 01010KT M04/M08 A3011 RMK A01 T10401084  RH  072%=      5-min Rain = 0
KTH1 101536Z 35006G11KT M04/M08 A3011 RMK A01 T10401084  RH  072%=      5-min Rain = 0
KTH1 101537Z 36007G13KT M04/M08 A3011 RMK A01 T10391082  RH  072%=      5-min Rain = 0
KTH1 101538Z 36011KT M04/M08 A3011 RMK A01 T10381081  RH  073%=      5-min Rain = 0
KTH1 101539Z 35010KT M04/M08 A3011 RMK A01 T10381080  RH  073%=      5-min Rain = 0
KTH1 101540Z 35010G15KT M04/M08 A3011 RMK A01 T10381079  RH  073%=      5-min Rain = 0
KTH1 101541Z 36012KT M04/M08 A3011 RMK A01 T10391079  RH  074%=      5-min Rain = 0
KTH1 101542Z 35008KT M04/M08 A3011 RMK A01 T10391080  RH  073%=      5-min Rain = 0
KTH1 101543Z 35011KT M04/M08 A3011 RMK A01 T10391079  RH  074%=      5-min Rain = 0
KTH1 101544Z 35013KT M04/M08 A3011 RMK A01 T10391080  RH  073%=      5-min Rain = 0
KTH1 101545Z 35012KT M04/M08 A301 RMK A01 T10391080  RH  073%=      5-min Rain = 0
KTH1 101546Z 35012KT M04/M08 A301 RMK A01 T10391080  RH  073%=      5-min Rain = 0
KTH1 101547Z 35009G14KT M04/M08 A301 RMK A01 T10391080  RH  073%=      5-min Rain = 0
KTH1 101548Z 34012KT M04/M08 A3011 RMK A01 T10371079  RH  073%=      5-min Rain = 0
KTH1 101549Z 34010KT M04/M08 A3011 RMK A01 T10371079  RH  073%=      5-min Rain = 0
KTH1 101550Z 35009KT M04/M08 A3011 RMK A01 T10371079  RH  073%=      5-min Rain = 0
KTH1 101551Z 34008KT M04/M08 A3011 RMK A01 T10371078  RH  073%=      5-min Rain = 0
KTH1 101552Z 35006G11KT M04/M08 A3011 RMK A01 T10361077  RH  073%=      5-min Rain = 0
KTH1 101553Z 36006G12KT M04/M08 A3011 RMK A01 T10351078  RH  072%=      5-min Rain = 0
KTH1 101554Z 35008KT M04/M08 A3011 RMK A01 T10351077  RH  072%=      5-min Rain = 0
KTH1 101555Z 34010KT M03/M08 A3011 RMK A01 T10341077  RH  072%=      5-min Rain = 0
KTH1 101556Z 34009KT M03/M08 A3011 RMK A01 T10341078  RH  072%=      5-min Rain = 0
KTH1 101557Z 33011KT M03/M08 A3011 RMK A01 T10341078  RH  071%=      5-min Rain = 0
KTH1 101558Z 34009KT M03/M08 A3011 RMK A01 T10341079  RH  071%=      5-min Rain = 0
KTH1 101559Z 34011KT M04/M08 A3011 RMK A01 T10351079  RH  071%=      5-min Rain = 0
KTH1 101600Z 34013KT M04/M08 A3011 RMK A01 T10351080  RH  071%=      5-min Rain = 0
KTH1 101601Z 34010KT M04/M08 A3011 RMK A01 T10361080  RH  072%=      5-min Rain = 0
KTH1 101602Z 34011G16KT M04/M08 A3011 RMK A01 T10361078  RH  072%=      5-min Rain = 0
KTH1 101603Z 34008G13KT M04/M08 A3011 RMK A01 T10361079  RH  072%=      5-min Rain = 0
KTH1 101604Z 35010KT M04/M08 A3011 RMK A01 T10361078  RH  073%=      5-min Rain = 0
KTH1 101605Z 33010KT M04/M08 A3011 RMK A01 T10351078  RH  073%=      5-min Rain = 0
KTH1 101606Z 34010KT M04/M08 A3011 RMK A01 T10351076  RH  073%=      5-min Rain = 0
KTH1 101607Z 34010KT M03/M08 A3011 RMK A01 T10341076  RH  073%=      5-min Rain = 0
KTH1 101608Z 33008KT M03/M08 A3011 RMK A01 T10341076  RH  073%=      5-min Rain = 0
KTH1 101609Z 35010KT M03/M08 A3011 RMK A01 T10341076  RH  073%=      5-min Rain = 0
KTH1 101610Z 35012KT M03/M08 A3011 RMK A01 T10331078  RH  071%=      5-min Rain = 0
KTH1 101611Z 34013KT M04/M08 A3011 RMK A01 T10351080  RH  071%=      5-min Rain = 0
KTH1 101612Z 35011KT M04/M08 A3011 RMK A01 T10351080  RH  071%=      5-min Rain = 0
KTH1 101613Z 34012KT M04/M08 A3011 RMK A01 T10351079  RH  072%=      5-min Rain = 0
KTH1 101614Z 35009KT M04/M08 A3011 RMK A01 T10351079  RH  071%=      5-min Rain = 0
KTH1 101615Z 35012KT M04/M08 A3011 RMK A01 T10351080  RH  071%=      5-min Rain = 0
KTH1 101616Z 34012KT M03/M08 A3011 RMK A01 T10341080  RH  071%=      5-min Rain = 0
KTH1 101617Z 35009KT M03/M08 A3011 RMK A01 T10341080  RH  070%=      5-min Rain = 0
KTH1 101618Z 35012KT M03/M08 A3011 RMK A01 T10331079  RH  071%=      5-min Rain = 0
KTH1 101619Z 35010KT M03/M08 A3011 RMK A01 T10331079  RH  070%=      5-min Rain = 0
KTH1 101620Z 34009G14KT M03/M08 A3011 RMK A01 T10331079  RH  070%=      5-min Rain = 0
KTH1 101621Z 34010KT M03/M08 A3011 RMK A01 T10321078  RH  070%=      5-min Rain = 0
KTH1 101622Z 34009KT M03/M08 A3011 RMK A01 T10311079  RH  070%=      5-min Rain = 0
KTH1 101623Z 34009KT M03/M08 A301 RMK A01 T10321079  RH  070%=      5-min Rain = 0
KTH1 101624Z 34007KT M03/M08 A301 RMK A01 T10311077  RH  071%=      5-min Rain = 0
KTH1 101625Z 33012G18KT M03/M08 A301 RMK A01 T10301075  RH  071%=      5-min Rain = 0
KTH1 101626Z 34011G16KT M03/M08 A301 RMK A01 T10301079  RH  069%=      5-min Rain = 0
KTH1 101627Z 34012KT M03/M08 A301 RMK A01 T10311079  RH  070%=      5-min Rain = 0
KTH1 101628Z 34013G19KT M03/M08 A301 RMK A01 T10321079  RH  070%=      5-min Rain = 0
KTH1 101629Z 34012KT M03/M08 A301 RMK A01 T10321079  RH  070%=      5-min Rain = 0
KTH1 101630Z 33013KT M03/M08 A301 RMK A01 T10321078  RH  071%=      5-min Rain = 0
KTH1 101631Z 36011G16KT M03/M08 A3011 RMK A01 T10321078  RH  071%=      5-min Rain = 0
KTH1 101632Z 35007KT M03/M08 A3011 RMK A01 T10321078  RH  070%=      5-min Rain = 0
KTH1 101633Z 34009KT M03/M08 A3011 RMK A01 T10311077  RH  070%=      5-min Rain = 0
KTH1 101634Z 34010G15KT M03/M08 A3011 RMK A01 T10291075  RH  071%=      5-min Rain = 0
KTH1 101635Z 34013KT M03/M08 A301 RMK A01 T10291076  RH  070%=      5-min Rain = 0
KTH1 101636Z 34012KT M03/M08 A301 RMK A01 T10311078  RH  070%=      5-min Rain = 0
KTH1 101637Z 35014KT M03/M08 A301 RMK A01 T10321079  RH  070%=      5-min Rain = 0
KTH1 101638Z 35011KT M03/M08 A301 RMK A01 T10331079  RH  070%=      5-min Rain = 0
KTH1 101639Z 34012KT M03/M08 A301 RMK A01 T10331078  RH  071%=      5-min Rain = 0
KTH1 101640Z 34009KT M03/M08 A301 RMK A01 T10331078  RH  071%=      5-min Rain = 0
KTH1 101641Z 35012KT M03/M08 A301 RMK A01 T10331077  RH  071%=      5-min Rain = 0
KTH1 101642Z 35008KT M03/M08 A301 RMK A01 T10321079  RH  070%=      5-min Rain = 0
KTH1 101643Z 35009G14KT M03/M08 A301 RMK A01 T10321079  RH  070%=      5-min Rain = 0
KTH1 101644Z 34014KT M03/M08 A301 RMK A01 T10311079  RH  069%=      5-min Rain = 0
KTH1 101645Z 35011KT M03/M08 A301 RMK A01 T10311080  RH  069%=      5-min Rain = 0
KTH1 101646Z 35012KT M03/M08 A301 RMK A01 T10311080  RH  069%=      5-min Rain = 0
KTH1 101647Z 34010KT M03/M08 A301 RMK A01 T10321079  RH  070%=      5-min Rain = 0
KTH1 101648Z 36011KT M03/M08 A301 RMK A01 T10321079  RH  070%=      5-min Rain = 0
KTH1 101649Z 01010KT M03/M08 A301 RMK A01 T10321080  RH  069%=      5-min Rain = 0
KTH1 101650Z 00009KT M03/M08 A301 RMK A01 T10311081  RH  068%=      5-min Rain = 0
KTH1 101651Z 36009KT M03/M08 A301 RMK A01 T10311080  RH  069%=      5-min Rain = 0
KTH1 101652Z 36010G15KT M03/M08 A301 RMK A01 T10291078  RH  069%=      5-min Rain = 0
KTH1 101653Z 35010KT M03/M08 A301 RMK A01 T10291081  RH  067%=      5-min Rain = 0
KTH1 101654Z 36010KT M03/M08 A301 RMK A01 T10291083  RH  066%=      5-min Rain = 0
KTH1 101655Z 35010KT M03/M08 A301 RMK A01 T10291083  RH  066%=      5-min Rain = 0
KTH1 101656Z 36008KT M03/M08 A301 RMK A01 T10291084  RH  066%=      5-min Rain = 0
KTH1 101657Z 36007KT M03/M08 A301 RMK A01 T10291083  RH  066%=      5-min Rain = 0
KTH1 101658Z 35008KT M03/M08 A301 RMK A01 T10271082  RH  066%=      5-min Rain = 0
KTH1 101659Z 35009G14KT M03/M08 A301 RMK A01 T10261080  RH  066%=      5-min Rain = 0
KTH1 101700Z 36012KT M03/M08 A301 RMK A01 T10251082  RH  065%=      5-min Rain = 0
KTH1 101701Z 35012KT M03/M08 A301 RMK A01 T10261083  RH  065%=      5-min Rain = 0
KTH1 101702Z 35012KT M03/M08 A301 RMK A01 T10261084  RH  065%=      5-min Rain = 0
KTH1 101703Z 34006KT M03/M08 A301 RMK A01 T10261084  RH  065%=      5-min Rain = 0
KTH1 101704Z 34010KT M03/M08 A3009 RMK A01 T10261082  RH  066%=      5-min Rain = 0
KTH1 101705Z 33009KT M03/M08 A3009 RMK A01 T10261081  RH  065%=      5-min Rain = 0
KTH1 101706Z 35011KT M03/M08 A3009 RMK A01 T10261082  RH  065%=      5-min Rain = 0
KTH1 101707Z 01008KT M03/M08 A3009 RMK A01 T10261083  RH  065%=      5-min Rain = 0
KTH1 101708Z 36007G12KT M03/M09 A3009 RMK A01 T10261085  RH  064%=      5-min Rain = 0
KTH1 101709Z 33010G15KT M03/M09 A3009 RMK A01 T10261085  RH  064%=      5-min Rain = 0
KTH1 101710Z 33010KT M03/M08 A3009 RMK A01 T10251084  RH  064%=      5-min Rain = 0
KTH1 101711Z 35009KT M03/M08 A3009 RMK A01 T10251083  RH  064%=      5-min Rain = 0
KTH1 101712Z 35009KT M02/M08 A3009 RMK A01 T10241082  RH  064%=      5-min Rain = 0
KTH1 101713Z 36010KT M02/M08 A3009 RMK A01 T10221081  RH  064%=      5-min Rain = 0
KTH1 101714Z 36008KT M02/M08 A3009 RMK A01 T10221084  RH  062%=      5-min Rain = 0
KTH1 101715Z 34010KT M02/M08 A3009 RMK A01 T10221084  RH  062%=      5-min Rain = 0
KTH1 101716Z 34012KT M02/M09 A3009 RMK A01 T10221086  RH  062%=      5-min Rain = 0
KTH1 101717Z 33012KT M02/M09 A3009 RMK A01 T10241086  RH  062%=      5-min Rain = 0
KTH1 101718Z 33011KT M02/M09 A3009 RMK A01 T10241086  RH  063%=      5-min Rain = 0
KTH1 101719Z 34010G15KT M02/M09 A3009 RMK A01 T10241085  RH  063%=      5-min Rain = 0
KTH1 101720Z 35012G17KT M03/M09 A3009 RMK A01 T10251086  RH  063%=      5-min Rain = 0
KTH1 101721Z 35009KT M03/M09 A3009 RMK A01 T10251087  RH  062%=      5-min Rain = 0
KTH1 101722Z 34010KT M02/M09 A3009 RMK A01 T10241085  RH  063%=      5-min Rain = 0
KTH1 101723Z 34012KT M02/M09 A3009 RMK A01 T10241086  RH  062%=      5-min Rain = 0
KTH1 101724Z 34012KT M02/M09 A3009 RMK A01 T10241086  RH  062%=      5-min Rain = 0
KTH1 101725Z 34007G14KT M03/M09 A3009 RMK A01 T10251087  RH  062%=      5-min Rain = 0
KTH1 101726Z 35007KT M03/M09 A3009 RMK A01 T10251086  RH  063%=      5-min Rain = 0
KTH1 101727Z 36012KT M02/M09 A3009 RMK A01 T10231085  RH  062%=      5-min Rain = 0
KTH1 101728Z 00011KT M02/M09 A3009 RMK A01 T10231088  RH  061%=      5-min Rain = 0
KTH1 101729Z 35009KT M02/M09 A3009 RMK A01 T10241088  RH  061%=      5-min Rain = 0
KTH1 101730Z 36007KT M02/M09 A3009 RMK A01 T10221086  RH  062%=      5-min Rain = 0
KTH1 101731Z 35009KT M02/M09 A3009 RMK A01 T10211085  RH  062%=      5-min Rain = 0
KTH1 101732Z 34010KT M02/M09 A3009 RMK A01 T10211085  RH  061%=      5-min Rain = 0
KTH1 101733Z 35007KT M02/M09 A3009 RMK A01 T10201085  RH  061%=      5-min Rain = 0
KTH1 101734Z 35013KT M02/M09 A3009 RMK A01 T10201085  RH  061%=      5-min Rain = 0
KTH1 101735Z 01010KT M02/M09 A3009 RMK A01 T10211088  RH  060%=      5-min Rain = 0
KTH1 101736Z 36009KT M02/M09 A3009 RMK A01 T10241089  RH  061%=      5-min Rain = 0
KTH1 101737Z 35007KT M02/M09 A3009 RMK A01 T10241088  RH  062%=      5-min Rain = 0
KTH1 101738Z 00008KT M02/M09 A3009 RMK A01 T10231085  RH  062%=      5-min Rain = 0
KTH1 101739Z 36006KT M02/M09 A3009 RMK A01 T10221085  RH  062%=      5-min Rain = 0
KTH1 101740Z 35010KT M02/M09 A3009 RMK A01 T10221085  RH  062%=      5-min Rain = 0
KTH1 101741Z 34008KT M02/M09 A3009 RMK A01 T10221087  RH  061%=      5-min Rain = 0
KTH1 101742Z 34008G15KT M02/M08 A3009 RMK A01 T10211084  RH  062%=      5-min Rain = 0
KTH1 101743Z 34011KT M02/M08 A3009 RMK A01 T10201084  RH  062%=      5-min Rain = 0
KTH1 101744Z 34010KT M02/M09 A3009 RMK A01 T10201086  RH  061%=      5-min Rain = 0
KTH1 101745Z 35012KT M02/M09 A3009 RMK A01 T10211088  RH  060%=      5-min Rain = 0
KTH1 101746Z 34011KT M02/M09 A3009 RMK A01 T10231091  RH  060%=      5-min Rain = 0
KTH1 101747Z 34010KT M02/M09 A3009 RMK A01 T10241092  RH  060%=      5-min Rain = 0
KTH1 101748Z 34007KT M02/M09 A3009 RMK A01 T10241091  RH  060%=      5-min Rain = 0
KTH1 101749Z 34012KT M02/M09 A3009 RMK A01 T10231088  RH  061%=      5-min Rain = 0
KTH1 101750Z 34010KT M02/M09 A3009 RMK A01 T10231090  RH  060%=      5-min Rain = 0
KTH1 101751Z 32011KT M02/M09 A3008 RMK A01 T10231090  RH  060%=      5-min Rain = 0
KTH1 101752Z 33012KT M02/M09 A3008 RMK A01 T10241088  RH  061%=      5-min Rain = 0
KTH1 101753Z 35014KT M02/M09 A3008 RMK A01 T10231088  RH  061%=      5-min Rain = 0
KTH1 101754Z 35010G15KT M02/M09 A3009 RMK A01 T10231089  RH  061%=      5-min Rain = 0
KTH1 101755Z 35007KT M02/M09 A3009 RMK A01 T10231089  RH  061%=      5-min Rain = 0
KTH1 101756Z 35006KT M02/M09 A3009 RMK A01 T10221087  RH  061%=      5-min Rain = 0
KTH1 101757Z 36005KT M02/M09 A3009 RMK A01 T10201085  RH  061%=      5-min Rain = 0
KTH1 101758Z 35009KT M02/M09 A3008 RMK A01 T10171085  RH  060%=      5-min Rain = 0
KTH1 101759Z 35010KT M02/M09 A3008 RMK A01 T10171086  RH  059%=      5-min Rain = 0
KTH1 101800Z 35012KT M02/M09 A3009 RMK A01 T10171087  RH  059%=      5-min Rain = 0
KTH1 101801Z 35008KT M02/M09 A3008 RMK A01 T10191091  RH  058%=      5-min Rain = 0
KTH1 101802Z 35007G13KT M02/M09 A3008 RMK A01 T10201088  RH  060%=      5-min Rain = 0
KTH1 101803Z 34010KT M02/M09 A3008 RMK A01 T10191088  RH  059%=      5-min Rain = 0
KTH1 101804Z 33007KT M02/M09 A3008 RMK A01 T10201091  RH  058%=      5-min Rain = 0
KTH1 101805Z 33006KT M02/M09 A3008 RMK A01 T10211090  RH  059%=      5-min Rain = 0
KTH1 101806Z 34004KT M02/M09 A3008 RMK A01 T10191086  RH  060%=      5-min Rain = 0
KTH1 101807Z 00008KT M02/M08 A3008 RMK A01 T10161084  RH  060%=      5-min Rain = 0
KTH1 101808Z 36008KT M02/M09 A3008 RMK A01 T10151085  RH  059%=      5-min Rain = 0
KTH1 101809Z 33009G15KT M02/M09 A3008 RMK A01 T10151087  RH  058%=      5-min Rain = 0
KTH1 101810Z 34010KT M02/M09 A3008 RMK A01 T10161086  RH  059%=      5-min Rain = 0
KTH1 101811Z 34010KT M02/M09 A3008 RMK A01 T10171086  RH  059%=      5-min Rain = 0
KTH1 101812Z 35010KT M02/M09 A3008 RMK A01 T10171087  RH  059%=      5-min Rain = 0
KTH1 101813Z 33010KT M02/M09 A3008 RMK A01 T10181087  RH  059%=      5-min Rain = 0
KTH1 101814Z 34008KT M02/M09 A3008 RMK A01 T10181087  RH  059%=      5-min Rain = 0
KTH1 101815Z 35007G12KT M02/M09 A3008 RMK A01 T10161085  RH  059%=      5-min Rain = 0
KTH1 101816Z 34011KT M02/M08 A3008 RMK A01 T10151084  RH  059%=      5-min Rain = 0
KTH1 101817Z 35011KT M02/M09 A3008 RMK A01 T10151086  RH  058%=      5-min Rain = 0
KTH1 101818Z 34009KT M02/M09 A3008 RMK A01 T10181089  RH  058%=      5-min Rain = 0
KTH1 101819Z 34007KT M02/M09 A3008 RMK A01 T10181086  RH  059%=      5-min Rain = 0
KTH1 101820Z 34006KT M02/M09 A3008 RMK A01 T10181087  RH  059%=      5-min Rain = 0
KTH1 101821Z 33006KT M02/M09 A3007 RMK A01 T10171086  RH  059%=      5-min Rain = 0
KTH1 101822Z 34009KT M01/M08 A3007 RMK A01 T10141084  RH  059%=      5-min Rain = 0
KTH1 101823Z 34008KT M02/M09 A3007 RMK A01 T10151086  RH  058%=      5-min Rain = 0
KTH1 101824Z 35006KT M02/M09 A3007 RMK A01 T10151088  RH  058%=      5-min Rain = 0
KTH1 101825Z 33008KT M02/M09 A3007 RMK A01 T10161086  RH  059%=      5-min Rain = 0
KTH1 101826Z 35010KT M02/M09 A3007 RMK A01 T10151085  RH  059%=      5-min Rain = 0
KTH1 101827Z 00010KT M01/M09 A3007 RMK A01 T10141089  RH  057%=      5-min Rain = 0
KTH1 101828Z 36008KT M02/M10 A3007 RMK A01 T10191095  RH  056%=      5-min Rain = 0
KTH1 101829Z 35011KT M02/M09 A3007 RMK A01 T10201092  RH  058%=      5-min Rain = 0
KTH1 101830Z 35011KT M02/M09 A3007 RMK A01 T10181090  RH  058%=      5-min Rain = 0
KTH1 101831Z 34011KT M02/M09 A3007 RMK A01 T10171089  RH  058%=      5-min Rain = 0
KTH1 101832Z 33011KT M02/M09 A3007 RMK A01 T10181088  RH  058%=      5-min Rain = 0
KTH1 101833Z 32012KT M02/M09 A3007 RMK A01 T10181087  RH  059%=      5-min Rain = 0
KTH1 101834Z 34012KT M02/M09 A3006 RMK A01 T10181086  RH  060%=      5-min Rain = 0
KTH1 101835Z 00011KT M02/M09 A3006 RMK A01 T10181087  RH  059%=      5-min Rain = 0
KTH1 101836Z 35010KT M02/M09 A3006 RMK A01 T10181088  RH  059%=      5-min Rain = 0
KTH1 101837Z 33008KT M02/M09 A3006 RMK A01 T10191087  RH  059%=      5-min Rain = 0
KTH1 101838Z 36006KT M02/M09 A3006 RMK A01 T10181085  RH  060%=      5-min Rain = 0
KTH1 101839Z 36010KT M02/M08 A3006 RMK A01 T10151083  RH  060%=      5-min Rain = 0
KTH1 101840Z 35009G14KT M02/M09 A3006 RMK A01 T10151087  RH  058%=      5-min Rain = 0
KTH1 101841Z 00008KT M02/M09 A3006 RMK A01 T10161089  RH  057%=      5-min Rain = 0
KTH1 101842Z 36007KT M02/M09 A3006 RMK A01 T10161091  RH  057%=      5-min Rain = 0
KTH1 101843Z 34009KT M02/M09 A3006 RMK A01 T10161089  RH  057%=      5-min Rain = 0
KTH1 101844Z 33010KT M02/M09 A3006 RMK A01 T10151088  RH  058%=      5-min Rain = 0
KTH1 101845Z 34012KT M02/M09 A3006 RMK A01 T10151087  RH  058%=      5-min Rain = 0
KTH1 101846Z 33010G15KT M02/M09 A3005 RMK A01 T10161089  RH  058%=      5-min Rain = 0
KTH1 101847Z 33010KT M02/M09 A3005 RMK A01 T10161088  RH  058%=      5-min Rain = 0
KTH1 101848Z 33007KT M02/M09 A3005 RMK A01 T10161088  RH  058%=      5-min Rain = 0
KTH1 101849Z 33007KT M02/M09 A3005 RMK A01 T10171089  RH  058%=      5-min Rain = 0
KTH1 101850Z 34006KT M02/M09 A3005 RMK A01 T10161087  RH  059%=      5-min Rain = 0
KTH1 101851Z 33009KT M01/M09 A3005 RMK A01 T10141085  RH  058%=      5-min Rain = 0
KTH1 101852Z 34009KT M01/M08 A3005 RMK A01 T10131084  RH  058%=      5-min Rain = 0
KTH1 101853Z 33010KT M01/M09 A3005 RMK A01 T10121086  RH  057%=      5-min Rain = 0
KTH1 101854Z 32009KT M01/M09 A3004 RMK A01 T10131087  RH  057%=      5-min Rain = 0
KTH1 101855Z 33009KT M01/M09 A3004 RMK A01 T10131086  RH  058%=      5-min Rain = 0
KTH1 101856Z 34007KT M01/M09 A3004 RMK A01 T10121087  RH  057%=      5-min Rain = 0
KTH1 101857Z 33008G13KT M01/M09 A3004 RMK A01 T10121087  RH  057%=      5-min Rain = 0
KTH1 101858Z 35012KT M01/M09 A3004 RMK A01 T10101086  RH  057%=      5-min Rain = 0
KTH1 101859Z 33005KT M01/M09 A3004 RMK A01 T10101087  RH  056%=      5-min Rain = 0
KTH1 101900Z 33010KT M01/M09 A3004 RMK A01 T10111087  RH  056%=      5-min Rain = 0
KTH1 101901Z 33008KT M01/M09 A3004 RMK A01 T10111086  RH  056%=      5-min Rain = 0
KTH1 101902Z 33008KT M01/M09 A3004 RMK A01 T10101085  RH  057%=      5-min Rain = 0
KTH1 101903Z 32011KT M01/M09 A3004 RMK A01 T10091086  RH  056%=      5-min Rain = 0
KTH1 101904Z 33008KT M01/M08 A3004 RMK A01 T10101083  RH  058%=      5-min Rain = 0
KTH1 101905Z 00009KT M01/M08 A3004 RMK A01 T10091082  RH  057%=      5-min Rain = 0
KTH1 101906Z 35008KT M01/M09 A3004 RMK A01 T10081087  RH  055%=      5-min Rain = 0
KTH1 101907Z 33011KT M01/M08 A3004 RMK A01 T10091084  RH  057%=      5-min Rain = 0
KTH1 101908Z 33009KT M01/M08 A3003 RMK A01 T10081083  RH  057%=      5-min Rain = 0
KTH1 101909Z 33010KT M01/M08 A3003 RMK A01 T10091084  RH  057%=      5-min Rain = 0
KTH1 101910Z 33010KT M01/M09 A3003 RMK A01 T10101085  RH  057%=      5-min Rain = 0
KTH1 101911Z 33009KT M01/M08 A3003 RMK A01 T10101084  RH  057%=      5-min Rain = 0
KTH1 101912Z 33009KT M01/M08 A3003 RMK A01 T10091081  RH  058%=      5-min Rain = 0
KTH1 101913Z 33008KT M01/M08 A3003 RMK A01 T10091080  RH  058%=      5-min Rain = 0
KTH1 101914Z 32009KT M01/M08 A3003 RMK A01 T10081079  RH  059%=      5-min Rain = 0
KTH1 101915Z 34005KT M01/M08 A3003 RMK A01 T10081080  RH  058%=      5-min Rain = 0
KTH1 101916Z 34005KT M01/M08 A3003 RMK A01 T10091081  RH  058%=      5-min Rain = 0
KTH1 101917Z 34008KT M01/M08 A3003 RMK A01 T10091082  RH  058%=      5-min Rain = 0
KTH1 101918Z 34008KT M01/M08 A3003 RMK A01 T10091082  RH  058%=      5-min Rain = 0
KTH1 101919Z 34006KT M01/M08 A3003 RMK A01 T10091078  RH  060%=      5-min Rain = 0
KTH1 101920Z 36007KT M01/M08 A3002 RMK A01 T10081077  RH  060%=      5-min Rain = 0
KTH1 101921Z 36007KT M01/M08 A3003 RMK A01 T10071081  RH  058%=      5-min Rain = 0
KTH1 101922Z 34006KT M01/M08 A3002 RMK A01 T10091084  RH  057%=      5-min Rain = 0
KTH1 101923Z 33007KT M01/M08 A3002 RMK A01 T10091080  RH  058%=      5-min Rain = 0
KTH1 101924Z 33006KT M01/M08 A3002 RMK A01 T10071080  RH  058%=      5-min Rain = 0
KTH1 101925Z 32007KT M01/M08 A3002 RMK A01 T10071083  RH  056%=      5-min Rain = 0
KTH1 101926Z 35006KT M01/M08 A3002 RMK A01 T10071083  RH  056%=      5-min Rain = 0
KTH1 101927Z 02006KT M01/M09 A3002 RMK A01 T10071085  RH  055%=      5-min Rain = 0
KTH1 101928Z 01005KT M01/M09 A3002 RMK A01 T10071087  RH  054%=      5-min Rain = 0
KTH1 101929Z 01005KT M01/M09 A3002 RMK A01 T10071088  RH  054%=      5-min Rain = 0
KTH1 101930Z 36008KT M01/M09 A3002 RMK A01 T10071088  RH  054%=      5-min Rain = 0
KTH1 101931Z 36009KT M01/M09 A3002 RMK A01 T10061087  RH  054%=      5-min Rain = 0
KTH1 101932Z 35007KT M00/M09 A3002 RMK A01 T10041086  RH  054%=      5-min Rain = 0
KTH1 101933Z 36009KT M00/M08 A3002 RMK A01 T10021084  RH  054%=      5-min Rain = 0
KTH1 101934Z 01007KT M00/M09 A3002 RMK A01 T10021085  RH  054%=      5-min Rain = 0
KTH1 101935Z 35008KT M00/M09 A3002 RMK A01 T10031086  RH  054%=      5-min Rain = 0
KTH1 101936Z 35008KT M01/M09 A3001 RMK A01 T10061088  RH  054%=      5-min Rain = 0
KTH1 101937Z 01006KT M01/M09 A3001 RMK A01 T10081087  RH  055%=      5-min Rain = 0
KTH1 101938Z 02011KT M01/M09 A3001 RMK A01 T10071086  RH  055%=      5-min Rain = 0
KTH1 101939Z 02008KT M01/M09 A3001 RMK A01 T10071087  RH  055%=      5-min Rain = 0
KTH1 101940Z 01007KT M01/M09 A3001 RMK A01 T10071087  RH  055%=      5-min Rain = 0
KTH1 101941Z 35007KT M00/M08 A3001 RMK A01 T10041084  RH  055%=      5-min Rain = 0
KTH1 101942Z 35006KT M00/M08 A3001 RMK A01 T10021081  RH  055%=      5-min Rain = 0
KTH1 101943Z 35010KT 00/08 A3001 RMK A01 T00-00-81  RH  054%=      5-min Rain = 0
KTH1 101944Z 35009KT M00/M08 A30 RMK A01 T10011084  RH  054%=      5-min Rain = 0
KTH1 101945Z 34007KT M00/M09 A30 RMK A01 T10021085  RH  054%=      5-min Rain = 0
KTH1 101946Z 01005KT M00/M09 A30 RMK A01 T10041087  RH  053%=      5-min Rain = 0
KTH1 101947Z 01006KT M01/M09 A30 RMK A01 T10051087  RH  054%=      5-min Rain = 0
KTH1 101948Z 34008KT M00/M08 A30 RMK A01 T10041084  RH  054%=      5-min Rain = 0
KTH1 101949Z 33007KT M00/M08 A30 RMK A01 T10031083  RH  055%=      5-min Rain = 0
KTH1 101950Z 34009KT 00/M08 A30 RMK A01 T00011079  RH  055%=      5-min Rain = 0
KTH1 101951Z 34008KT 00/M08 A30 RMK A01 T00031080  RH  054%=      5-min Rain = 0
KTH1 101952Z 35008KT 00/M08 A30 RMK A01 T00011084  RH  053%=      5-min Rain = 0
KTH1 101953Z 01006KT 00/09 A30 RMK A01 T00-00-85  RH  053%=      5-min Rain = 0
KTH1 101954Z 01006KT 00/08 A30 RMK A01 T00-00-84  RH  053%=      5-min Rain = 0
KTH1 101955Z 35006G11KT 00/M08 A30 RMK A01 T00011083  RH  053%=      5-min Rain = 0
KTH1 101956Z 35008G13KT 00/M08 A30 RMK A01 T00031082  RH  053%=      5-min Rain = 0
KTH1 101957Z 35007KT 00/M08 A30 RMK A01 T00011083  RH  053%=      5-min Rain = 0
KTH1 101958Z 33006KT 00/08 A30 RMK A01 T00-00-84  RH  053%=      5-min Rain = 0
KTH1 101959Z 35010KT M00/M08 A30 RMK A01 T10021084  RH  054%=      5-min Rain = 0
KTH1 102000Z 35008KT M00/M09 A30 RMK A01 T10031085  RH  054%=      5-min Rain = 0
KTH1 102001Z 02006KT M00/M08 A30 RMK A01 T10041084  RH  055%=      5-min Rain = 0
KTH1 102002Z 00010KT M00/M08 A30 RMK A01 T10021083  RH  054%=      5-min Rain = 0
KTH1 102003Z 02008KT M00/M09 A30 RMK A01 T10031085  RH  054%=      5-min Rain = 0
KTH1 102004Z 01007KT M00/M08 A2999 RMK A01 T10041084  RH  055%=      5-min Rain = 0
KTH1 102005Z 01005KT M01/M09 A2999 RMK A01 T10051085  RH  055%=      5-min Rain = 0
KTH1 102006Z 36006KT M01/M09 A2999 RMK A01 T10051085  RH  055%=      5-min Rain = 0
KTH1 102007Z 00009KT M00/M08 A2999 RMK A01 T10041084  RH  055%=      5-min Rain = 0
KTH1 102008Z 01009KT M00/M09 A2999 RMK A01 T10031086  RH  053%=      5-min Rain = 0
KTH1 102009Z 01008KT M00/M09 A2999 RMK A01 T10031087  RH  053%=      5-min Rain = 0
KTH1 102010Z 00006KT M00/M09 A2999 RMK A01 T10041087  RH  054%=      5-min Rain = 0
KTH1 102011Z 35007KT M00/M08 A2999 RMK A01 T10021084  RH  054%=      5-min Rain = 0
KTH1 102012Z 01008KT 00/08 A2999 RMK A01 T00000-82  RH  054%=      5-min Rain = 0
KTH1 102013Z 01008KT 00/M08 A2999 RMK A01 T00021083  RH  053%=      5-min Rain = 0
KTH1 102014Z 02009KT 00/M08 A2999 RMK A01 T00021084  RH  053%=      5-min Rain = 0
KTH1 102015Z 03005KT 00/M08 A2999 RMK A01 T00011084  RH  053%=      5-min Rain = 0
KTH1 102016Z 01007KT 00/08 A2999 RMK A01 T00000-84  RH  053%=      5-min Rain = 0
KTH1 102017Z 36006KT 00/09 A2999 RMK A01 T00-00-85  RH  053%=      5-min Rain = 0
KTH1 102018Z 35009KT M00/M08 A2999 RMK A01 T10011084  RH  053%=      5-min Rain = 0
KTH1 102019Z 34006KT M00/M09 A2999 RMK A01 T10021085  RH  054%=      5-min Rain = 0
KTH1 102020Z 33009KT M00/M08 A2999 RMK A01 T10021082  RH  055%=      5-min Rain = 0
KTH1 102021Z 35009KT 00/08 A2999 RMK A01 T00-00-80  RH  055%=      5-min Rain = 0
KTH1 102022Z 35011KT 00/M08 A2999 RMK A01 T00011082  RH  054%=      5-min Rain = 0
KTH1 102023Z 01008KT M00/M08 A2999 RMK A01 T10011084  RH  054%=      5-min Rain = 0
KTH1 102024Z 02006KT M00/M08 A2999 RMK A01 T10021084  RH  054%=      5-min Rain = 0
KTH1 102025Z 00005KT M00/M08 A2999 RMK A01 T10021083  RH  054%=      5-min Rain = 0
KTH1 102026Z 34006KT 00/08 A2999 RMK A01 T00-00-81  RH  055%=      5-min Rain = 0
KTH1 102027Z 35007KT 00/M08 A2999 RMK A01 T00011081  RH  054%=      5-min Rain = 0
KTH1 102028Z 35009KT 00/08 A2999 RMK A01 T00000-81  RH  055%=      5-min Rain = 0
KTH1 102029Z 35009KT 00/08 A2998 RMK A01 T00000-82  RH  054%=      5-min Rain = 0
KTH1 102030Z 33007KT M00/M08 A2998 RMK A01 T10011081  RH  054%=      5-min Rain = 0
KTH1 102031Z 33006KT 00/M08 A2998 RMK A01 T00011077  RH  056%=      5-min Rain = 0
KTH1 102032Z 33007KT 00/M08 A2998 RMK A01 T00021077  RH  055%=      5-min Rain = 0
KTH1 102033Z 33008KT 00/M08 A2998 RMK A01 T00041076  RH  055%=      5-min Rain = 0
KTH1 102034Z 34007KT 01/M08 A2998 RMK A01 T00051078  RH  054%=      5-min Rain = 0
KTH1 102035Z 34004G9KT 00/M08 A2998 RMK A01 T00031082  RH  053%=      5-min Rain = 0
KTH1 102036Z 01007KT 00/M08 A2998 RMK A01 T00021081  RH  053%=      5-min Rain = 0
KTH1 102037Z 01007KT 00/M08 A2998 RMK A01 T00031081  RH  053%=      5-min Rain = 0
KTH1 102038Z 35009G14KT 00/M08 A2998 RMK A01 T00031082  RH  053%=      5-min Rain = 0
KTH1 102039Z 34009KT 00/M08 A2998 RMK A01 T00031082  RH  053%=      5-min Rain = 0
KTH1 102040Z 33008KT 00/M08 A2998 RMK A01 T00031077  RH  055%=      5-min Rain = 0
KTH1 102041Z 33008KT 00/M08 A2998 RMK A01 T00041077  RH  055%=      5-min Rain = 0
KTH1 102042Z 34009KT 00/M08 A2999 RMK A01 T00041078  RH  054%=      5-min Rain = 0
KTH1 102043Z 34006KT 00/M08 A2999 RMK A01 T00031080  RH  054%=      5-min Rain = 0
KTH1 102044Z 34007KT 00/M08 A2998 RMK A01 T00021081  RH  053%=      5-min Rain = 0
KTH1 102045Z 35007KT 00/M08 A2998 RMK A01 T00021081  RH  054%=      5-min Rain = 0
KTH1 102046Z 32007KT 00/M08 A2998 RMK A01 T00011082  RH  053%=      5-min Rain = 0
KTH1 102047Z 32011KT 00/08 A2998 RMK A01 T00000-79  RH  055%=      5-min Rain = 0
KTH1 102048Z 35008KT 00/M08 A2998 RMK A01 T00011077  RH  056%=      5-min Rain = 0
KTH1 102049Z 34007KT 00/M08 A2998 RMK A01 T00021080  RH  054%=      5-min Rain = 0
KTH1 102050Z 34005KT 00/M08 A2998 RMK A01 T00021079  RH  054%=      5-min Rain = 0
KTH1 102051Z 34007KT 01/M08 A2998 RMK A01 T00051076  RH  055%=      5-min Rain = 0
KTH1 102052Z 33008KT 01/M08 A2998 RMK A01 T00071075  RH  054%=      5-min Rain = 0
KTH1 102053Z 33006KT 01/M08 A2998 RMK A01 T00071078  RH  053%=      5-min Rain = 0
KTH1 102054Z 33005KT 01/M08 A2998 RMK A01 T00061078  RH  053%=      5-min Rain = 0
KTH1 102055Z 31006KT 01/M08 A2998 RMK A01 T00061077  RH  054%=      5-min Rain = 0
KTH1 102056Z 35006KT 01/M08 A2998 RMK A01 T00051077  RH  054%=      5-min Rain = 0
KTH1 102057Z 00006KT 01/M08 A2998 RMK A01 T00051079  RH  053%=      5-min Rain = 0
KTH1 102058Z 02010KT 01/M08 A2998 RMK A01 T00061080  RH  053%=      5-min Rain = 0
KTH1 102059Z 36008KT 01/M08 A2998 RMK A01 T00061081  RH  052%=      5-min Rain = 0
KTH1 102100Z 35010KT 00/M08 A2998 RMK A01 T00041083  RH  052%=      5-min Rain = 0
KTH1 102101Z 01007KT 00/M08 A2998 RMK A01 T00031082  RH  053%=      5-min Rain = 0
KTH1 102102Z 35004KT 00/M08 A2998 RMK A01 T00041081  RH  053%=      5-min Rain = 0
KTH1 102103Z 00006KT 01/M08 A2998 RMK A01 T00051080  RH  053%=      5-min Rain = 0
KTH1 102104Z 01005KT 01/M08 A2997 RMK A01 T00051081  RH  052%=      5-min Rain = 0
KTH1 102105Z 00004KT 01/M08 A2997 RMK A01 T00051082  RH  052%=      5-min Rain = 0
KTH1 102106Z 35008KT 01/M08 A2997 RMK A01 T00051082  RH  052%=      5-min Rain = 0
KTH1 102107Z 35008KT 01/M08 A2997 RMK A01 T00051082  RH  052%=      5-min Rain = 0
KTH1 102108Z 00007KT 00/M08 A2997 RMK A01 T00041083  RH  052%=      5-min Rain = 0
KTH1 102109Z 01008KT 01/M08 A2997 RMK A01 T00061081  RH  052%=      5-min Rain = 0
KTH1 102110Z 01007KT 01/M08 A2997 RMK A01 T00061083  RH  051%=      5-min Rain = 0
KTH1 102111Z 00005KT 01/M08 A2997 RMK A01 T00051084  RH  051%=      5-min Rain = 0
KTH1 102112Z 34006KT 01/M08 A2997 RMK A01 T00051084  RH  052%=      5-min Rain = 0
KTH1 102113Z 34006KT 01/M08 A2997 RMK A01 T00051083  RH  052%=      5-min Rain = 0
KTH1 102114Z 31005KT 01/M08 A2997 RMK A01 T00051082  RH  052%=      5-min Rain = 0
KTH1 102115Z 34005KT 01/M08 A2997 RMK A01 T00061080  RH  053%=      5-min Rain = 0
KTH1 102116Z 36005KT 01/M08 A2997 RMK A01 T00081080  RH  052%=      5-min Rain = 0
KTH1 102117Z 36004KT 01/M08 A2997 RMK A01 T00091081  RH  051%=      5-min Rain = 0
KTH1 102118Z 33003KT 01/M08 A2997 RMK A01 T00101082  RH  050%=      5-min Rain = 0
KTH1 102119Z 00005KT 01/M08 A2997 RMK A01 T00101080  RH  051%=      5-min Rain = 0
KTH1 102120Z 00006KT 01/M08 A2997 RMK A01 T00121080  RH  051%=      5-min Rain = 0
KTH1 102121Z 34004KT 01/M08 A2997 RMK A01 T00131079  RH  050%=      5-min Rain = 0
KTH1 102122Z 32004KT 02/M08 A2997 RMK A01 T00161077  RH  050%=      5-min Rain = 0
KTH1 102123Z 34005KT 02/M08 A2996 RMK A01 T00161079  RH  049%=      5-min Rain = 0
KTH1 102124Z 02006KT 01/M08 A2996 RMK A01 T00141082  RH  049%=      5-min Rain = 0
KTH1 102125Z 01007KT 01/M08 A2996 RMK A01 T00131082  RH  049%=      5-min Rain = 0
KTH1 102126Z 01009KT 01/M08 A2996 RMK A01 T00131081  RH  050%=      5-min Rain = 0
KTH1 102127Z 02008KT 01/M08 A2996 RMK A01 T00121082  RH  050%=      5-min Rain = 0
KTH1 102128Z 01007KT 01/M08 A2996 RMK A01 T00111082  RH  050%=      5-min Rain = 0
KTH1 102129Z 01007KT 01/M08 A2996 RMK A01 T00111081  RH  050%=      5-min Rain = 0
KTH1 102130Z 03006KT 01/M08 A2996 RMK A01 T00111081  RH  050%=      5-min Rain = 0
KTH1 102131Z 01004KT 01/M08 A2996 RMK A01 T00111082  RH  050%=      5-min Rain = 0
KTH1 102132Z 36006KT 01/M08 A2996 RMK A01 T00111079  RH  051%=      5-min Rain = 0
KTH1 102133Z 00007KT 01/M08 A2996 RMK A01 T00141078  RH  050%=      5-min Rain = 0
KTH1 102134Z 02005KT 01/M08 A2996 RMK A01 T00141080  RH  050%=      5-min Rain = 0
KTH1 102135Z 02006KT 02/M08 A2996 RMK A01 T00151079  RH  050%=      5-min Rain = 0
KTH1 102136Z 35008KT 02/M08 A2996 RMK A01 T00161079  RH  049%=      5-min Rain = 0
KTH1 102137Z 00007KT 02/M08 A2996 RMK A01 T00161079  RH  049%=      5-min Rain = 0
KTH1 102138Z 34006KT 02/M08 A2996 RMK A01 T00151079  RH  050%=      5-min Rain = 0
KTH1 102139Z 34005KT 02/M08 A2996 RMK A01 T00171077  RH  050%=      5-min Rain = 0
KTH1 102140Z 34004KT 02/M08 A2996 RMK A01 T00171078  RH  049%=      5-min Rain = 0
KTH1 102141Z 03008KT 02/M08 A2995 RMK A01 T00181077  RH  049%=      5-min Rain = 0
KTH1 102142Z 03009KT 02/M08 A2995 RMK A01 T00181079  RH  049%=      5-min Rain = 0
KTH1 102143Z 02007KT 02/M08 A2995 RMK A01 T00181079  RH  049%=      5-min Rain = 0
KTH1 102144Z 02005KT 02/M08 A2995 RMK A01 T00191079  RH  048%=      5-min Rain = 0
KTH1 102145Z 03005KT 02/M08 A2995 RMK A01 T00201079  RH  048%=      5-min Rain = 0
KTH1 102146Z 01004KT 02/M08 A2995 RMK A01 T00201079  RH  048%=      5-min Rain = 0
KTH1 102147Z 35007KT 02/M08 A2995 RMK A01 T00211079  RH  048%=      5-min Rain = 0
KTH1 102148Z 33007KT 02/M08 A2995 RMK A01 T00211078  RH  048%=      5-min Rain = 0
KTH1 102149Z 34007KT 02/M08 A2995 RMK A01 T00201078  RH  048%=      5-min Rain = 0
KTH1 102150Z 35004KT 02/M08 A2995 RMK A01 T00181080  RH  048%=      5-min Rain = 0
KTH1 102151Z 01003KT 02/M08 A2995 RMK A01 T00171080  RH  048%=      5-min Rain = 0
KTH1 102152Z 02002KT 02/M08 A2995 RMK A01 T00171081  RH  048%=      5-min Rain = 0
KTH1 102153Z 35006KT 02/M08 A2995 RMK A01 T00181079  RH  049%=      5-min Rain = 0
KTH1 102154Z 35006KT 02/M08 A2995 RMK A01 T00191079  RH  048%=      5-min Rain = 0
KTH1 102155Z 35006KT 02/M08 A2995 RMK A01 T00181079  RH  048%=      5-min Rain = 0
KTH1 102156Z 34005KT 02/M08 A2995 RMK A01 T00181080  RH  048%=      5-min Rain = 0
KTH1 102157Z 35005KT 02/M08 A2995 RMK A01 T00181079  RH  049%=      5-min Rain = 0
KTH1 102158Z 35006KT 02/M08 A2995 RMK A01 T00201077  RH  049%=      5-min Rain = 0
KTH1 102159Z 35006KT 02/M08 A2995 RMK A01 T00191080  RH  048%=      5-min Rain = 0
KTH1 102200Z 36006KT 02/M08 A2995 RMK A01 T00181080  RH  048%=      5-min Rain = 0
KTH1 102201Z 34006KT 02/M08 A2994 RMK A01 T00191079  RH  048%=      5-min Rain = 0
KTH1 102202Z 32004KT 02/M08 A2994 RMK A01 T00191078  RH  049%=      5-min Rain = 0
KTH1 102203Z 35004KT 02/M08 A2994 RMK A01 T00181079  RH  049%=      5-min Rain = 0
KTH1 102204Z 00006KT 02/M08 A2994 RMK A01 T00181078  RH  049%=      5-min Rain = 0
KTH1 102205Z 35006KT 02/M08 A2994 RMK A01 T00201077  RH  049%=      5-min Rain = 0
KTH1 102206Z 35006KT 02/M08 A2994 RMK A01 T00211075  RH  049%=      5-min Rain = 0
KTH1 102207Z 33006KT 02/M08 A2994 RMK A01 T00211077  RH  048%=      5-min Rain = 0
KTH1 102208Z 32004KT 02/M08 A2994 RMK A01 T00191079  RH  048%=      5-min Rain = 0
KTH1 102209Z 01003KT 02/M08 A2994 RMK A01 T00181078  RH  049%=      5-min Rain = 0
KTH1 102210Z 02005KT 02/M08 A2994 RMK A01 T00181079  RH  049%=      5-min Rain = 0
KTH1 102211Z 01007KT 02/M08 A2994 RMK A01 T00171080  RH  049%=      5-min Rain = 0
KTH1 102212Z 35006KT 02/M08 A2994 RMK A01 T00171079  RH  049%=      5-min Rain = 0
KTH1 102213Z 35007KT 02/M08 A2994 RMK A01 T00171080  RH  048%=      5-min Rain = 0
KTH1 102214Z 33007KT 02/M08 A2994 RMK A01 T00171080  RH  049%=      5-min Rain = 0
KTH1 102215Z 36005KT 02/M08 A2994 RMK A01 T00161080  RH  049%=      5-min Rain = 0
KTH1 102216Z 02006KT 02/M08 A2994 RMK A01 T00161079  RH  049%=      5-min Rain = 0
KTH1 102217Z 00003KT 02/M08 A2994 RMK A01 T00161081  RH  049%=      5-min Rain = 0
KTH1 102218Z 02005KT 02/M08 A2994 RMK A01 T00151081  RH  049%=      5-min Rain = 0
KTH1 102219Z 35005KT 02/M08 A2994 RMK A01 T00161080  RH  049%=      5-min Rain = 0
KTH1 102220Z 32005KT 02/M08 A2994 RMK A01 T00161078  RH  049%=      5-min Rain = 0
KTH1 102221Z 32006KT 02/M08 A2994 RMK A01 T00181075  RH  050%=      5-min Rain = 0
KTH1 102222Z 32006KT 02/M08 A2994 RMK A01 T00181076  RH  050%=      5-min Rain = 0
KTH1 102223Z 33004KT 02/M08 A2994 RMK A01 T00181075  RH  050%=      5-min Rain = 0
KTH1 102224Z 32005KT 02/M08 A2994 RMK A01 T00191075  RH  050%=      5-min Rain = 0
KTH1 102225Z 33004KT 02/M08 A2994 RMK A01 T00201077  RH  049%=      5-min Rain = 0
KTH1 102226Z 32007KT 02/M07 A2994 RMK A01 T00211074  RH  050%=      5-min Rain = 0
KTH1 102227Z 34007KT 02/M07 A2994 RMK A01 T00221070  RH  051%=      5-min Rain = 0
KTH1 102228Z 35005KT 02/M07 A2994 RMK A01 T00231074  RH  049%=      5-min Rain = 0
KTH1 102229Z 34005KT 02/M08 A2994 RMK A01 T00231075  RH  048%=      5-min Rain = 0
KTH1 102230Z 35008KT 02/M08 A2994 RMK A01 T00241076  RH  048%=      5-min Rain = 0
KTH1 102231Z 36006KT 02/M08 A2994 RMK A01 T00201081  RH  047%=      5-min Rain = 0
KTH1 102232Z 35006KT 02/M08 A2994 RMK A01 T00181082  RH  047%=      5-min Rain = 0
KTH1 102233Z 36007KT 02/M08 A2994 RMK A01 T00171081  RH  048%=      5-min Rain = 0
KTH1 102234Z 36006KT 02/M08 A2994 RMK A01 T00171081  RH  048%=      5-min Rain = 0
KTH1 102235Z 33004KT 02/M08 A2994 RMK A01 T00161081  RH  048%=      5-min Rain = 0
KTH1 102236Z 32002KT 02/M08 A2994 RMK A01 T00151080  RH  049%=      5-min Rain = 0
KTH1 102237Z 03004KT 02/M08 A2994 RMK A01 T00161080  RH  049%=      5-min Rain = 0
KTH1 102238Z 01005KT 02/M08 A2994 RMK A01 T00161079  RH  049%=      5-min Rain = 0
KTH1 102239Z 00007KT 02/M08 A2994 RMK A01 T00161079  RH  049%=      5-min Rain = 0
KTH1 102240Z 36008KT 02/M08 A2994 RMK A01 T00161080  RH  049%=      5-min Rain = 0
KTH1 102241Z 35007KT 02/M08 A2994 RMK A01 T00161079  RH  049%=      5-min Rain = 0
KTH1 102242Z 33005KT 02/M08 A2994 RMK A01 T00161077  RH  050%=      5-min Rain = 0
KTH1 102243Z 33003KT 02/M08 A2994 RMK A01 T00161079  RH  049%=      5-min Rain = 0
KTH1 102244Z 35003KT 02/M08 A2994 RMK A01 T00151078  RH  050%=      5-min Rain = 0
KTH1 102245Z 34006KT 02/M08 A2994 RMK A01 T00161077  RH  050%=      5-min Rain = 0
KTH1 102246Z 34004KT 02/M08 A2994 RMK A01 T00171077  RH  050%=      5-min Rain = 0
KTH1 102247Z 01006KT 02/M08 A2994 RMK A01 T00171077  RH  050%=      5-min Rain = 0
KTH1 102248Z 36005KT 02/M08 A2994 RMK A01 T00171078  RH  049%=      5-min Rain = 0
KTH1 102249Z 02005KT 02/M08 A2994 RMK A01 T00161080  RH  049%=      5-min Rain = 0
KTH1 102250Z 35005KT 02/M08 A2994 RMK A01 T00151080  RH  049%=      5-min Rain = 0
KTH1 102251Z 33005KT 02/M08 A2994 RMK A01 T00151079  RH  050%=      5-min Rain = 0
KTH1 102252Z 01005KT 02/M08 A2994 RMK A01 T00171077  RH  050%=      5-min Rain = 0
KTH1 102253Z 00005KT 02/M08 A2994 RMK A01 T00171078  RH  049%=      5-min Rain = 0
KTH1 102254Z 34005KT 02/M08 A2994 RMK A01 T00171078  RH  049%=      5-min Rain = 0
KTH1 102255Z 34004KT 02/M08 A2994 RMK A01 T00171077  RH  050%=      5-min Rain = 0
KTH1 102256Z 35005KT 02/M08 A2994 RMK A01 T00171077  RH  050%=      5-min Rain = 0
KTH1 102257Z 00005KT 02/M08 A2994 RMK A01 T00161079  RH  049%=      5-min Rain = 0
KTH1 102258Z 34005KT 02/M08 A2994 RMK A01 T00161078  RH  050%=      5-min Rain = 0
KTH1 102259Z 35005KT 02/M07 A2994 RMK A01 T00181074  RH  050%=      5-min Rain = 0
KTH1 102300Z 02006KT 02/M08 A2994 RMK A01 T00191075  RH  049%=      5-min Rain = 0
KTH1 102301Z 01007KT 02/M08 A2994 RMK A01 T00181078  RH  049%=      5-min Rain = 0
KTH1 102302Z 01009KT 02/M08 A2994 RMK A01 T00161081  RH  049%=      5-min Rain = 0
KTH1 102303Z 02007KT 01/M08 A2994 RMK A01 T00141081  RH  049%=      5-min Rain = 0
KTH1 102304Z 04005KT 01/M08 A2994 RMK A01 T00131081  RH  050%=      5-min Rain = 0
KTH1 102305Z 04006KT 01/M08 A2994 RMK A01 T00121080  RH  050%=      5-min Rain = 0
KTH1 102306Z 04005KT 01/M08 A2994 RMK A01 T00131080  RH  050%=      5-min Rain = 0
KTH1 102307Z 02007KT 01/M08 A2994 RMK A01 T00121080  RH  050%=      5-min Rain = 0
KTH1 102308Z 01009KT 01/M08 A2994 RMK A01 T00121080  RH  050%=      5-min Rain = 0
KTH1 102309Z 01007KT 01/M08 A2994 RMK A01 T00111081  RH  051%=      5-min Rain = 0
KTH1 102310Z 00007KT 01/M08 A2994 RMK A01 T00101080  RH  051%=      5-min Rain = 0
KTH1 102311Z 36007KT 01/M08 A2994 RMK A01 T00101080  RH  051%=      5-min Rain = 0
KTH1 102312Z 36008KT 01/M08 A2994 RMK A01 T00101080  RH  051%=      5-min Rain = 0
KTH1 102313Z 35008KT 01/M08 A2994 RMK A01 T00101079  RH  051%=      5-min Rain = 0
KTH1 102314Z 01005KT 01/M08 A2994 RMK A01 T00101079  RH  051%=      5-min Rain = 0
KTH1 102315Z 35005KT 01/M08 A2994 RMK A01 T00101079  RH  052%=      5-min Rain = 0
KTH1 102316Z 35007KT 01/M08 A2994 RMK A01 T00101079  RH  052%=      5-min Rain = 0
KTH1 102317Z 00007KT 01/M08 A2994 RMK A01 T00101078  RH  052%=      5-min Rain = 0
KTH1 102318Z 01006KT 01/M08 A2994 RMK A01 T00101079  RH  051%=      5-min Rain = 0
KTH1 102319Z 02008KT 01/M08 A2994 RMK A01 T00101080  RH  051%=      5-min Rain = 0
KTH1 102320Z 01005KT 01/M08 A2994 RMK A01 T00101080  RH  051%=      5-min Rain = 0
KTH1 102321Z 02005KT 01/M08 A2994 RMK A01 T00101080  RH  051%=      5-min Rain = 0
KTH1 102322Z 01005KT 01/M08 A2994 RMK A01 T00101080  RH  051%=      5-min Rain = 0
KTH1 102323Z 36005KT 01/M08 A2994 RMK A01 T00101080  RH  051%=      5-min Rain = 0
KTH1 102324Z 36007KT 01/M08 A2994 RMK A01 T00101080  RH  051%=      5-min Rain = 0
KTH1 102325Z 36008KT 01/M08 A2994 RMK A01 T00101079  RH  051%=      5-min Rain = 0
KTH1 102326Z 00005KT 01/M08 A2994 RMK A01 T00111079  RH  051%=      5-min Rain = 0
KTH1 102327Z 35007KT 01/M08 A2994 RMK A01 T00111079  RH  051%=      5-min Rain = 0
KTH1 102328Z 35006KT 01/M08 A2994 RMK A01 T00111079  RH  051%=      5-min Rain = 0
KTH1 102329Z 36006KT 01/M08 A2994 RMK A01 T00111078  RH  052%=      5-min Rain = 0
KTH1 102330Z 35009KT 01/M08 A2994 RMK A01 T00111078  RH  051%=      5-min Rain = 0
KTH1 102331Z 35009KT 01/M08 A2994 RMK A01 T00101080  RH  051%=      5-min Rain = 0
KTH1 102332Z 01005KT 01/M08 A2994 RMK A01 T00091080  RH  051%=      5-min Rain = 0
KTH1 102333Z 02006KT 01/M08 A2994 RMK A01 T00081080  RH  052%=      5-min Rain = 0
KTH1 102334Z 00008KT 01/M08 A2994 RMK A01 T00081081  RH  052%=      5-min Rain = 0
KTH1 102335Z 02008KT 01/M08 A2994 RMK A01 T00081081  RH  051%=      5-min Rain = 0
KTH1 102336Z 01008KT 01/M08 A2994 RMK A01 T00071082  RH  052%=      5-min Rain = 0
KTH1 102337Z 01008KT 01/M08 A2994 RMK A01 T00061082  RH  052%=      5-min Rain = 0
KTH1 102338Z 01009KT 01/M08 A2994 RMK A01 T00051082  RH  052%=      5-min Rain = 0
KTH1 102339Z 01007KT 00/M08 A2994 RMK A01 T00041082  RH  052%=      5-min Rain = 0
KTH1 102340Z 01008KT 00/M08 A2995 RMK A01 T00041082  RH  052%=      5-min Rain = 0
KTH1 102341Z 01007KT 00/M08 A2995 RMK A01 T00031083  RH  053%=      5-min Rain = 0
KTH1 102342Z 01006KT 00/M08 A2995 RMK A01 T00021083  RH  053%=      5-min Rain = 0
KTH1 102343Z 01006KT 00/M08 A2994 RMK A01 T00011083  RH  053%=      5-min Rain = 0
KTH1 102344Z 01007KT 00/M08 A2994 RMK A01 T00011083  RH  053%=      5-min Rain = 0
KTH1 102345Z 02008KT 00/M08 A2994 RMK A01 T00011082  RH  054%=      5-min Rain = 0
KTH1 102346Z 01007KT 00/M08 A2994 RMK A01 T00011082  RH  054%=      5-min Rain = 0
KTH1 102347Z 01007KT 00/08 A2994 RMK A01 T00000-82  RH  054%=      5-min Rain = 0
KTH1 102348Z 01007KT 00/08 A2994 RMK A01 T00-00-82  RH  054%=      5-min Rain = 0
KTH1 102349Z 01007KT M00/M08 A2994 RMK A01 T10011082  RH  054%=      5-min Rain = 0
KTH1 102350Z 00005KT M00/M08 A2994 RMK A01 T10011082  RH  054%=      5-min Rain = 0
KTH1 102351Z 02007KT M00/M08 A2994 RMK A01 T10011082  RH  055%=      5-min Rain = 0
KTH1 102352Z 03007KT M00/M08 A2994 RMK A01 T10021082  RH  055%=      5-min Rain = 0
KTH1 102353Z 02006KT M00/M08 A2994 RMK A01 T10021082  RH  055%=      5-min Rain = 0
KTH1 102354Z 03005KT M00/M08 A2994 RMK A01 T10021082  RH  055%=      5-min Rain = 0
KTH1 102355Z 02005KT M00/M08 A2994 RMK A01 T10021082  RH  055%=      5-min Rain = 0
KTH1 102356Z 02007KT M00/M08 A2994 RMK A01 T10031082  RH  055%=      5-min Rain = 0
KTH1 102357Z 01007KT M00/M08 A2994 RMK A01 T10031082  RH  055%=      5-min Rain = 0
KTH1 102358Z 01004KT M00/M08 A2994 RMK A01 T10031082  RH  055%=      5-min Rain = 0
KTH1 102359Z 02004KT M00/M08 A2994 RMK A01 T10031082  RH  055%=      5-min Rain = 0
KTH1 110000Z 01005KT M00/M08 A2994 RMK A01 T10041082  RH  055%=      5-min Rain = 0
KTH1 110001Z 01005KT M00/M08 A2994 RMK A01 T10041082  RH  055%=      5-min Rain = 0
KTH1 110002Z 02006KT M00/M08 A2994 RMK A01 T10041082  RH  055%=      5-min Rain = 0
KTH1 110003Z 02006KT M00/M08 A2994 RMK A01 T10041082  RH  056%=      5-min Rain = 0
KTH1 110004Z 01007KT M01/M08 A2994 RMK A01 T10051083  RH  056%=      5-min Rain = 0
KTH1 110005Z 01004KT M00/M08 A2995 RMK A01 T10041082  RH  056%=      5-min Rain = 0
KTH1 110006Z 02005KT M01/M08 A2995 RMK A01 T10051082  RH  056%=      5-min Rain = 0
KTH1 110007Z 01005KT M01/M08 A2995 RMK A01 T10051082  RH  056%=      5-min Rain = 0
KTH1 110008Z 01006KT M01/M08 A2995 RMK A01 T10061083  RH  056%=      5-min Rain = 0
KTH1 110009Z 01006KT M01/M08 A2995 RMK A01 T10061083  RH  056%=      5-min Rain = 0
KTH1 110010Z 01003KT M01/M08 A2995 RMK A01 T10061082  RH  056%=      5-min Rain = 0
KTH1 110011Z 01005KT M01/M08 A2995 RMK A01 T10061083  RH  056%=      5-min Rain = 0
KTH1 110012Z 01005KT M01/M08 A2995 RMK A01 T10071083  RH  056%=      5-min Rain = 0
KTH1 110013Z 00004KT M01/M08 A2995 RMK A01 T10071082  RH  057%=      5-min Rain = 0
KTH1 110014Z 01003KT M01/M08 A2995 RMK A01 T10071083  RH  057%=      5-min Rain = 0
KTH1 110015Z 01005KT M01/M08 A2995 RMK A01 T10081083  RH  057%=      5-min Rain = 0
KTH1 110016Z 01004KT M01/M08 A2995 RMK A01 T10081083  RH  057%=      5-min Rain = 0
KTH1 110017Z 01004KT M01/M08 A2995 RMK A01 T10081083  RH  057%=      5-min Rain = 0
KTH1 110018Z 01006KT M01/M08 A2995 RMK A01 T10091083  RH  057%=      5-min Rain = 0
KTH1 110019Z 01005KT M01/M08 A2995 RMK A01 T10091083  RH  057%=      5-min Rain = 0
KTH1 110020Z 01003KT M01/M08 A2995 RMK A01 T10091083  RH  057%=      5-min Rain = 0
KTH1 110021Z 01004KT M01/M08 A2995 RMK A01 T10101083  RH  057%=      5-min Rain = 0
KTH1 110022Z 00004KT M01/M08 A2996 RMK A01 T10111084  RH  058%=      5-min Rain = 0
KTH1 110023Z 00004KT M01/M08 A2995 RMK A01 T10111083  RH  058%=      5-min Rain = 0
KTH1 110024Z 00003KT M01/M08 A2995 RMK A01 T10111084  RH  058%=      5-min Rain = 0
KTH1 110025Z 00004KT M01/M08 A2995 RMK A01 T10111084  RH  058%=      5-min Rain = 0
KTH1 110026Z 00004KT M01/M08 A2995 RMK A01 T10121084  RH  058%=      5-min Rain = 0
KTH1 110027Z 35004KT M01/M08 A2995 RMK A01 T10111083  RH  058%=      5-min Rain = 0
KTH1 110028Z 00005KT M01/M08 A2995 RMK A01 T10111083  RH  058%=      5-min Rain = 0
KTH1 110029Z 00004KT M01/M08 A2995 RMK A01 T10111083  RH  058%=      5-min Rain = 0
KTH1 110030Z 01004KT M01/M08 A2995 RMK A01 T10121084  RH  058%=      5-min Rain = 0
KTH1 110031Z 01003KT M01/M08 A2995 RMK A01 T10121084  RH  058%=      5-min Rain = 0
KTH1 110032Z 01005KT M01/M08 A2995 RMK A01 T10131084  RH  058%=      5-min Rain = 0
KTH1 110033Z 01004KT M01/M08 A2995 RMK A01 T10131084  RH  058%=      5-min Rain = 0
KTH1 110034Z 00005KT M01/M08 A2995 RMK A01 T10131084  RH  058%=      5-min Rain = 0
KTH1 110035Z 01004KT M01/M08 A2995 RMK A01 T10131084  RH  059%=      5-min Rain = 0
KTH1 110036Z 01004KT M01/M08 A2995 RMK A01 T10141084  RH  059%=      5-min Rain = 0
KTH1 110037Z 01004KT M01/M08 A2995 RMK A01 T10131084  RH  059%=      5-min Rain = 0
KTH1 110038Z 01006KT M01/M09 A2995 RMK A01 T10141085  RH  059%=      5-min Rain = 0
KTH1 110039Z 01005KT M01/M09 A2995 RMK A01 T10141085  RH  059%=      5-min Rain = 0
KTH1 110040Z 01004KT M01/M09 A2995 RMK A01 T10141085  RH  059%=      5-min Rain = 0
KTH1 110041Z 01005KT M01/M09 A2995 RMK A01 T10141085  RH  059%=      5-min Rain = 0
KTH1 110042Z 02004KT M01/M09 A2995 RMK A01 T10141085  RH  059%=      5-min Rain = 0
KTH1 110043Z 02004KT M02/M09 A2995 RMK A01 T10151085  RH  059%=      5-min Rain = 0
KTH1 110044Z 02006KT M02/M09 A2995 RMK A01 T10151085  RH  059%=      5-min Rain = 0
KTH1 110045Z 02005KT M02/M09 A2995 RMK A01 T10151086  RH  059%=      5-min Rain = 0
KTH1 110046Z 01005KT M02/M09 A2995 RMK A01 T10151086  RH  059%=      5-min Rain = 0
KTH1 110047Z 02005KT M02/M09 A2995 RMK A01 T10151086  RH  058%=      5-min Rain = 0
KTH1 110048Z 01004KT M02/M09 A2995 RMK A01 T10151086  RH  058%=      5-min Rain = 0
KTH1 110049Z 01004KT M02/M09 A2995 RMK A01 T10151086  RH  058%=      5-min Rain = 0
KTH1 110050Z 02004KT M02/M09 A2995 RMK A01 T10151086  RH  058%=      5-min Rain = 0
KTH1 110051Z 01005KT M02/M09 A2996 RMK A01 T10151086  RH  059%=      5-min Rain = 0
KTH1 110052Z 01005KT M02/M09 A2996 RMK A01 T10161086  RH  059%=      5-min Rain = 0
KTH1 110053Z 01004KT M02/M09 A2996 RMK A01 T10161086  RH  059%=      5-min Rain = 0
KTH1 110054Z 01005KT M02/M09 A2996 RMK A01 T10161086  RH  059%=      5-min Rain = 0
KTH1 110055Z 01004KT M02/M09 A2996 RMK A01 T10161086  RH  059%=      5-min Rain = 0
KTH1 110056Z 01006KT M02/M09 A2996 RMK A01 T10171086  RH  059%=      5-min Rain = 0
KTH1 110057Z 01005KT M02/M09 A2996 RMK A01 T10171086  RH  059%=      5-min Rain = 0
KTH1 110058Z 01005KT M02/M09 A2996 RMK A01 T10171086  RH  059%=      5-min Rain = 0
KTH1 110059Z 01005KT M02/M09 A2996 RMK A01 T10171086  RH  059%=      5-min Rain = 0
KTH1 110100Z 01004KT M02/M09 A2996 RMK A01 T10171086  RH  059%=      5-min Rain = 0
KTH1 110101Z 01004KT M02/M09 A2996 RMK A01 T10171086  RH  059%=      5-min Rain = 0
KTH1 110102Z 00003KT M02/M09 A2996 RMK A01 T10171086  RH  059%=      5-min Rain = 0
KTH1 110103Z 00003KT M02/M09 A2996 RMK A01 T10171086  RH  059%=      5-min Rain = 0
KTH1 110104Z 01004KT M02/M09 A2996 RMK A01 T10171086  RH  059%=      5-min Rain = 0
KTH1 110105Z 00004KT M02/M09 A2996 RMK A01 T10181086  RH  059%=      5-min Rain = 0
KTH1 110106Z 00005KT M02/M09 A2996 RMK A01 T10181086  RH  060%=      5-min Rain = 0
KTH1 110107Z 01005KT M02/M09 A2996 RMK A01 T10181086  RH  060%=      5-min Rain = 0
KTH1 110108Z 00004KT M02/M09 A2996 RMK A01 T10181086  RH  060%=      5-min Rain = 0
KTH1 110109Z 00004KT M02/M09 A2996 RMK A01 T10181086  RH  060%=      5-min Rain = 0
KTH1 110110Z 00003KT M02/M09 A2996 RMK A01 T10181087  RH  060%=      5-min Rain = 0
KTH1 110111Z 00003KT M02/M09 A2996 RMK A01 T10181086  RH  060%=      5-min Rain = 0
KTH1 110112Z 00005KT M02/M09 A2996 RMK A01 T10181087  RH  060%=      5-min Rain = 0
KTH1 110113Z 01005KT M02/M09 A2996 RMK A01 T10191087  RH  060%=      5-min Rain = 0
KTH1 110114Z 00004KT M02/M09 A2996 RMK A01 T10191087  RH  060%=      5-min Rain = 0
KTH1 110115Z 00003KT M02/M09 A2996 RMK A01 T10191087  RH  060%=      5-min Rain = 0
KTH1 110116Z 01004KT M02/M09 A2997 RMK A01 T10191087  RH  060%=      5-min Rain = 0
KTH1 110117Z 01004KT M02/M09 A2997 RMK A01 T10191087  RH  060%=      5-min Rain = 0
KTH1 110118Z 00004KT M02/M09 A2997 RMK A01 T10191087  RH  060%=      5-min Rain = 0
KTH1 110119Z 00004KT M02/M09 A2997 RMK A01 T10191087  RH  060%=      5-min Rain = 0
KTH1 110120Z 01004KT M02/M09 A2997 RMK A01 T10201087  RH  060%=      5-min Rain = 0
KTH1 110121Z 01004KT M02/M09 A2997 RMK A01 T10201087  RH  060%=      5-min Rain = 0
KTH1 110122Z 01004KT M02/M09 A2997 RMK A01 T10211087  RH  060%=      5-min Rain = 0
KTH1 110123Z 01004KT M02/M09 A2997 RMK A01 T10211088  RH  060%=      5-min Rain = 0
KTH1 110124Z 01004KT M02/M09 A2997 RMK A01 T10211087  RH  060%=      5-min Rain = 0
KTH1 110125Z 01004KT M02/M09 A2997 RMK A01 T10211087  RH  061%=      5-min Rain = 0
KTH1 110126Z 01004KT M02/M09 A2997 RMK A01 T10211087  RH  060%=      5-min Rain = 0
KTH1 110127Z 01005KT M02/M09 A2997 RMK A01 T10221088  RH  060%=      5-min Rain = 0
KTH1 110128Z 01005KT M02/M09 A2997 RMK A01 T10221088  RH  061%=      5-min Rain = 0
KTH1 110129Z 02005KT M02/M09 A2997 RMK A01 T10221088  RH  061%=      5-min Rain = 0
KTH1 110130Z 01006KT M02/M09 A2997 RMK A01 T10221088  RH  061%=      5-min Rain = 0
KTH1 110131Z 02005KT M02/M09 A2997 RMK A01 T10221088  RH  061%=      5-min Rain = 0
KTH1 110132Z 02005KT M02/M09 A2997 RMK A01 T10221088  RH  061%=      5-min Rain = 0
KTH1 110133Z 02005KT M02/M09 A2997 RMK A01 T10221089  RH  060%=      5-min Rain = 0
KTH1 110134Z 02005KT M02/M09 A2997 RMK A01 T10221089  RH  060%=      5-min Rain = 0
KTH1 110135Z 01004KT M02/M09 A2997 RMK A01 T10221089  RH  060%=      5-min Rain = 0
KTH1 110136Z 01004KT M02/M09 A2997 RMK A01 T10221089  RH  060%=      5-min Rain = 0
KTH1 110137Z 01004KT M02/M09 A2997 RMK A01 T10221089  RH  060%=      5-min Rain = 0
KTH1 110138Z 02005KT M02/M09 A2997 RMK A01 T10221089  RH  060%=      5-min Rain = 0
KTH1 110139Z 01005KT M02/M09 A2997 RMK A01 T10211089  RH  060%=      5-min Rain = 0
KTH1 110140Z 01005KT M02/M09 A2997 RMK A01 T10211089  RH  060%=      5-min Rain = 0
KTH1 110141Z 01004KT M02/M09 A2997 RMK A01 T10211089  RH  060%=      5-min Rain = 0
KTH1 110142Z 01004KT M02/M09 A2997 RMK A01 T10211089  RH  060%=      5-min Rain = 0
KTH1 110143Z 02006KT M02/M09 A2997 RMK A01 T10221089  RH  060%=      5-min Rain = 0
KTH1 110144Z 01005KT M02/M09 A2997 RMK A01 T10221089  RH  060%=      5-min Rain = 0
KTH1 110145Z 01005KT M02/M09 A2997 RMK A01 T10221089  RH  060%=      5-min Rain = 0
KTH1 110146Z 00006KT M02/M09 A2997 RMK A01 T10221089  RH  060%=      5-min Rain = 0
KTH1 110147Z 01005KT M02/M09 A2997 RMK A01 T10221089  RH  060%=      5-min Rain = 0
KTH1 110148Z 01005KT M02/M09 A2997 RMK A01 T10221089  RH  060%=      5-min Rain = 0
KTH1 110149Z 01006KT M02/M09 A2997 RMK A01 T10211089  RH  060%=      5-min Rain = 0
KTH1 110150Z 00006KT M02/M09 A2997 RMK A01 T10211089  RH  060%=      5-min Rain = 0
KTH1 110151Z 36006KT M02/M09 A2998 RMK A01 T10221089  RH  060%=      5-min Rain = 0
KTH1 110152Z 36006KT M02/M09 A2998 RMK A01 T10211088  RH  060%=      5-min Rain = 0
KTH1 110153Z 36007KT M02/M09 A2998 RMK A01 T10221088  RH  060%=      5-min Rain = 0
KTH1 110154Z 00007KT M02/M09 A2998 RMK A01 T10221088  RH  060%=      5-min Rain = 0
KTH1 110155Z 00005KT M02/M09 A2998 RMK A01 T10221088  RH  060%=      5-min Rain = 0
KTH1 110156Z 36004KT M02/M09 A2998 RMK A01 T10221088  RH  060%=      5-min Rain = 0
KTH1 110157Z 36005KT M02/M09 A2998 RMK A01 T10231089  RH  061%=      5-min Rain = 0
KTH1 110158Z 36005KT M02/M09 A2999 RMK A01 T10241089  RH  061%=      5-min Rain = 0
KTH1 110159Z 00006KT M02/M09 A2999 RMK A01 T10241089  RH  061%=      5-min Rain = 0
KTH1 110200Z 01007KT M02/M09 A2999 RMK A01 T10241089  RH  061%=      5-min Rain = 0
KTH1 110201Z 01006KT M02/M09 A2999 RMK A01 T10241089  RH  061%=      5-min Rain = 0
KTH1 110202Z 01006KT M02/M09 A2999 RMK A01 T10241090  RH  061%=      5-min Rain = 0
KTH1 110203Z 01007KT M03/M09 A2999 RMK A01 T10251090  RH  061%=      5-min Rain = 0
KTH1 110204Z 01007KT M03/M09 A2999 RMK A01 T10251090  RH  061%=      5-min Rain = 0
KTH1 110205Z 01007KT M03/M09 A2999 RMK A01 T10251090  RH  061%=      5-min Rain = 0
KTH1 110206Z 01006KT M03/M09 A2999 RMK A01 T10251090  RH  061%=      5-min Rain = 0
KTH1 110207Z 02007KT M03/M09 A2999 RMK A01 T10251091  RH  061%=      5-min Rain = 0
KTH1 110208Z 01007KT M03/M09 A2999 RMK A01 T10251091  RH  061%=      5-min Rain = 0
KTH1 110209Z 03007KT M03/M09 A2999 RMK A01 T10251091  RH  061%=      5-min Rain = 0
KTH1 110210Z 02007KT M03/M09 A2998 RMK A01 T10251092  RH  060%=      5-min Rain = 0
KTH1 110211Z 03006KT M02/M09 A2998 RMK A01 T10241091  RH  060%=      5-min Rain = 0
KTH1 110212Z 02007KT M02/M09 A2998 RMK A01 T10241092  RH  060%=      5-min Rain = 0
KTH1 110213Z 03007KT M02/M09 A2999 RMK A01 T10241092  RH  059%=      5-min Rain = 0
KTH1 110214Z 02007KT M02/M09 A2999 RMK A01 T10241093  RH  059%=      5-min Rain = 0
KTH1 110215Z 03008KT M02/M09 A2999 RMK A01 T10241093  RH  059%=      5-min Rain = 0
KTH1 110216Z 03006KT M02/M09 A2999 RMK A01 T10231093  RH  059%=      5-min Rain = 0
KTH1 110217Z 03007KT M02/M09 A2999 RMK A01 T10231093  RH  059%=      5-min Rain = 0
KTH1 110218Z 03007KT M02/M09 A2999 RMK A01 T10231092  RH  059%=      5-min Rain = 0
KTH1 110219Z 03007KT M02/M09 A2999 RMK A01 T10231093  RH  059%=      5-min Rain = 0
KTH1 110220Z 03007KT M02/M09 A2999 RMK A01 T10241093  RH  059%=      5-min Rain = 0
KTH1 110221Z 03007KT M02/M09 A2999 RMK A01 T10241093  RH  059%=      5-min Rain = 0
KTH1 110222Z 03006KT M02/M09 A2999 RMK A01 T10241093  RH  059%=      5-min Rain = 0
KTH1 110223Z 03006KT M02/M09 A2999 RMK A01 T10241093  RH  059%=      5-min Rain = 0
KTH1 110224Z 03007KT M03/M09 A2999 RMK A01 T10251094  RH  059%=      5-min Rain = 0
KTH1 110225Z 03006KT M03/M09 A2999 RMK A01 T10251094  RH  059%=      5-min Rain = 0
KTH1 110226Z 03005KT M03/M09 A2999 RMK A01 T10251094  RH  059%=      5-min Rain = 0
KTH1 110227Z 03006KT M03/M09 A2999 RMK A01 T10251093  RH  060%=      5-min Rain = 0
KTH1 110228Z 03005KT M03/M09 A2999 RMK A01 T10261093  RH  060%=      5-min Rain = 0
KTH1 110229Z 03006KT M03/M09 A2999 RMK A01 T10261094  RH  060%=      5-min Rain = 0
KTH1 110230Z 03006KT M03/M09 A2999 RMK A01 T10261093  RH  060%=      5-min Rain = 0
KTH1 110231Z 03004KT M03/M09 A2999 RMK A01 T10271094  RH  060%=      5-min Rain = 0
KTH1 110232Z 03006KT M03/M09 A2999 RMK A01 T10271094  RH  060%=      5-min Rain = 0
KTH1 110233Z 03005KT M03/M09 A2999 RMK A01 T10271094  RH  060%=      5-min Rain = 0
KTH1 110234Z 02006KT M03/M09 A2999 RMK A01 T10271094  RH  060%=      5-min Rain = 0
KTH1 110235Z 03007KT M03/M09 A2999 RMK A01 T10271093  RH  060%=      5-min Rain = 0
KTH1 110236Z 03006KT M03/M09 A2999 RMK A01 T10271094  RH  060%=      5-min Rain = 0
KTH1 110237Z 03006KT M03/M09 A2999 RMK A01 T10271093  RH  060%=      5-min Rain = 0
KTH1 110238Z 03006KT M03/M09 A2999 RMK A01 T10271094  RH  060%=      5-min Rain = 0
KTH1 110239Z 03007KT M03/M09 A30 RMK A01 T10271094  RH  060%=      5-min Rain = 0
KTH1 110240Z 03006KT M03/M09 A30 RMK A01 T10271094  RH  060%=      5-min Rain = 0
KTH1 110241Z 03005KT M03/M09 A30 RMK A01 T10271094  RH  060%=      5-min Rain = 0
KTH1 110242Z 02005KT M03/M09 A30 RMK A01 T10271094  RH  060%=      5-min Rain = 0
KTH1 110243Z 03006KT M03/M09 A30 RMK A01 T10271094  RH  060%=      5-min Rain = 0
KTH1 110244Z 02005KT M03/M09 A30 RMK A01 T10271094  RH  060%=      5-min Rain = 0
KTH1 110245Z 02005KT M03/M09 A30 RMK A01 T10271094  RH  060%=      5-min Rain = 0
KTH1 110246Z 03004KT M03/M09 A30 RMK A01 T10271094  RH  060%=      5-min Rain = 0
KTH1 110247Z 03004KT M03/M10 A2999 RMK A01 T10271095  RH  060%=      5-min Rain = 0
KTH1 110248Z 03006KT M03/M09 A2999 RMK A01 T10271094  RH  060%=      5-min Rain = 0
KTH1 110249Z 02006KT M03/M09 A2999 RMK A01 T10271094  RH  060%=      5-min Rain = 0
KTH1 110250Z 03005KT M03/M10 A30 RMK A01 T10271095  RH  060%=      5-min Rain = 0
KTH1 110251Z 02006KT M03/M10 A30 RMK A01 T10281095  RH  060%=      5-min Rain = 0
KTH1 110252Z 02006KT M03/M10 A30 RMK A01 T10281095  RH  060%=      5-min Rain = 0
KTH1 110253Z 03006KT M03/M10 A30 RMK A01 T10271095  RH  060%=      5-min Rain = 0
KTH1 110254Z 02006KT M03/M10 A30 RMK A01 T10281095  RH  060%=      5-min Rain = 0
KTH1 110255Z 02006KT M03/M10 A30 RMK A01 T10271095  RH  060%=      5-min Rain = 0
KTH1 110256Z 02008KT M03/M10 A30 RMK A01 T10271095  RH  060%=      5-min Rain = 0
KTH1 110257Z 02006KT M03/M10 A30 RMK A01 T10271096  RH  059%=      5-min Rain = 0
KTH1 110258Z 01005KT M03/M10 A30 RMK A01 T10271096  RH  059%=      5-min Rain = 0
KTH1 110259Z 02005KT M03/M10 A3001 RMK A01 T10271095  RH  060%=      5-min Rain = 0
KTH1 110300Z 03006KT M03/M10 A3001 RMK A01 T10281096  RH  059%=      5-min Rain = 0
KTH1 110301Z 01005KT M03/M10 A3001 RMK A01 T10281096  RH  059%=      5-min Rain = 0
KTH1 110302Z 01006KT M03/M10 A3001 RMK A01 T10271096  RH  059%=      5-min Rain = 0
KTH1 110303Z 02005KT M03/M10 A3001 RMK A01 T10271096  RH  059%=      5-min Rain = 0
KTH1 110304Z 02004KT M03/M10 A3001 RMK A01 T10271095  RH  059%=      5-min Rain = 0
KTH1 110305Z 02005KT M03/M10 A3001 RMK A01 T10281095  RH  060%=      5-min Rain = 0
KTH1 110306Z 02006KT M03/M10 A3001 RMK A01 T10281096  RH  060%=      5-min Rain = 0
KTH1 110307Z 02006KT M03/M10 A3001 RMK A01 T10281096  RH  060%=      5-min Rain = 0
KTH1 110308Z 01006KT M03/M10 A3001 RMK A01 T10281096  RH  059%=      5-min Rain = 0
KTH1 110309Z 02007KT M03/M10 A3001 RMK A01 T10281096  RH  059%=      5-min Rain = 0
KTH1 110310Z 02006KT M03/M10 A3001 RMK A01 T10281096  RH  059%=      5-min Rain = 0
KTH1 110311Z 01006KT M03/M10 A3001 RMK A01 T10281096  RH  059%=      5-min Rain = 0
KTH1 110312Z 01005KT M03/M10 A3001 RMK A01 T10281096  RH  059%=      5-min Rain = 0
KTH1 110313Z 01006KT M03/M10 A3001 RMK A01 T10281096  RH  059%=      5-min Rain = 0
KTH1 110314Z 01005KT M03/M10 A3001 RMK A01 T10281096  RH  059%=      5-min Rain = 0
KTH1 110315Z 02005KT M03/M10 A3001 RMK A01 T10281096  RH  060%=      5-min Rain = 0
KTH1 110316Z 01007KT M03/M10 A3001 RMK A01 T10281096  RH  060%=      5-min Rain = 0
KTH1 110317Z 02007KT M03/M10 A3001 RMK A01 T10281096  RH  059%=      5-min Rain = 0
KTH1 110318Z 01006G11KT M03/M10 A3001 RMK A01 T10281096  RH  059%=      5-min Rain = 0
KTH1 110319Z 01008KT M03/M10 A3001 RMK A01 T10281097  RH  059%=      5-min Rain = 0
KTH1 110320Z 01005KT M03/M10 A3002 RMK A01 T10281097  RH  059%=      5-min Rain = 0
KTH1 110321Z 01006KT M03/M10 A3002 RMK A01 T10291096  RH  060%=      5-min Rain = 0
KTH1 110322Z 02008KT M03/M10 A3002 RMK A01 T10291096  RH  060%=      5-min Rain = 0
KTH1 110323Z 01007KT M03/M10 A3002 RMK A01 T10291096  RH  060%=      5-min Rain = 0
KTH1 110324Z 01005KT M03/M10 A3002 RMK A01 T10291096  RH  060%=      5-min Rain = 0
KTH1 110325Z 00007KT M03/M10 A3002 RMK A01 T10291096  RH  060%=      5-min Rain = 0
KTH1 110326Z 01007KT M03/M10 A3002 RMK A01 T10301097  RH  060%=      5-min Rain = 0
KTH1 110327Z 01006KT M03/M10 A3002 RMK A01 T10291096  RH  060%=      5-min Rain = 0
KTH1 110328Z 00006KT M03/M10 A3002 RMK A01 T10291096  RH  060%=      5-min Rain = 0
KTH1 110329Z 36004KT M03/M10 A3002 RMK A01 T10291096  RH  060%=      5-min Rain = 0
KTH1 110330Z 01004KT M03/M10 A3002 RMK A01 T10301096  RH  060%=      5-min Rain = 0
KTH1 110331Z 36005KT M03/M10 A3002 RMK A01 T10301096  RH  060%=      5-min Rain = 0
KTH1 110332Z 36007KT M03/M10 A3003 RMK A01 T10301096  RH  061%=      5-min Rain = 0
KTH1 110333Z 01005KT M03/M10 A3003 RMK A01 T10301096  RH  061%=      5-min Rain = 0
KTH1 110334Z 00005KT M03/M10 A3003 RMK A01 T10301096  RH  061%=      5-min Rain = 0
KTH1 110335Z 01005KT M03/M10 A3003 RMK A01 T10311096  RH  061%=      5-min Rain = 0
KTH1 110336Z 01008KT M03/M10 A3003 RMK A01 T10301096  RH  060%=      5-min Rain = 0
KTH1 110337Z 01010KT M03/M10 A3003 RMK A01 T10311098  RH  060%=      5-min Rain = 0
KTH1 110338Z 00007KT M03/M10 A3003 RMK A01 T10301098  RH  060%=      5-min Rain = 0
KTH1 110339Z 01010KT M03/M10 A3003 RMK A01 T10301098  RH  060%=      5-min Rain = 0
KTH1 110340Z 01010KT M03/M10 A3003 RMK A01 T10301098  RH  059%=      5-min Rain = 0
KTH1 110341Z 00009KT M03/M10 A3003 RMK A01 T10301098  RH  059%=      5-min Rain = 0
KTH1 110342Z 00009KT M03/M10 A3003 RMK A01 T10301098  RH  059%=      5-min Rain = 0
KTH1 110343Z 01008KT M03/M10 A3003 RMK A01 T10301098  RH  060%=      5-min Rain = 0
KTH1 110344Z 00009KT M03/M10 A3003 RMK A01 T10301098  RH  060%=      5-min Rain = 0
KTH1 110345Z 01008KT M03/M10 A3004 RMK A01 T10311098  RH  060%=      5-min Rain = 0
KTH1 110346Z 00008KT M03/M10 A3004 RMK A01 T10311099  RH  060%=      5-min Rain = 0
KTH1 110347Z 00010KT M03/M10 A3003 RMK A01 T10311099  RH  060%=      5-min Rain = 0
KTH1 110348Z 01009KT M03/M10 A3003 RMK A01 T10311098  RH  060%=      5-min Rain = 0
KTH1 110349Z 01008KT M03/M10 A3004 RMK A01 T10321099  RH  060%=      5-min Rain = 0
KTH1 110350Z 01010KT M03/M10 A3004 RMK A01 T10321099  RH  060%=      5-min Rain = 0
KTH1 110351Z 01009KT M03/M10 A3004 RMK A01 T10321099  RH  060%=      5-min Rain = 0
KTH1 110352Z 01007G12KT M03/M10 A3004 RMK A01 T10321098  RH  060%=      5-min Rain = 0
KTH1 110353Z 01010KT M03/M10 A3004 RMK A01 T10321098  RH  060%=      5-min Rain = 0
KTH1 110354Z 01006G11KT M03/M10 A3004 RMK A01 T10331099  RH  060%=      5-min Rain = 0
KTH1 110355Z 01009KT M03/M10 A3004 RMK A01 T10331099  RH  060%=      5-min Rain = 0
KTH1 110356Z 02010KT M03/M10 A3004 RMK A01 T10341099  RH  061%=      5-min Rain = 0
KTH1 110357Z 02011KT M03/M10 A3004 RMK A01 T10341099  RH  060%=      5-min Rain = 0
KTH1 110358Z 02011KT M03/M10 A3005 RMK A01 T10341100  RH  060%=      5-min Rain = 0
KTH1 110359Z 02008G13KT M03/M10 A3005 RMK A01 T10341100  RH  060%=      5-min Rain = 0
KTH1 110400Z 01010KT M04/M10 A3005 RMK A01 T10351100  RH  061%=      5-min Rain = 0
KTH1 110401Z 01013KT M04/M10 A3005 RMK A01 T10351100  RH  061%=      5-min Rain = 0
KTH1 110402Z 02010KT M04/M10 A3005 RMK A01 T10351100  RH  061%=      5-min Rain = 0
KTH1 110403Z 02008G14KT M04/M10 A3005 RMK A01 T10351100  RH  061%=      5-min Rain = 0
KTH1 110404Z 01010KT M04/M10 A3005 RMK A01 T10361101  RH  061%=      5-min Rain = 0
KTH1 110405Z 01007KT M04/M10 A3005 RMK A01 T10361100  RH  061%=      5-min Rain = 0
KTH1 110406Z 01008KT M04/M10 A3005 RMK A01 T10361100  RH  061%=      5-min Rain = 0
KTH1 110407Z 01009KT M04/M10 A3005 RMK A01 T10361100  RH  061%=      5-min Rain = 0
KTH1 110408Z 01007KT M04/M10 A3005 RMK A01 T10371101  RH  061%=      5-min Rain = 0
KTH1 110409Z 01006KT M04/M10 A3005 RMK A01 T10371100  RH  062%=      5-min Rain = 0
KTH1 110410Z 01008KT M04/M10 A3005 RMK A01 T10371100  RH  062%=      5-min Rain = 0
KTH1 110411Z 01010KT M04/M10 A3005 RMK A01 T10371100  RH  062%=      5-min Rain = 0
KTH1 110412Z 01007KT M04/M10 A3005 RMK A01 T10381100  RH  062%=      5-min Rain = 0
KTH1 110413Z 01010KT M04/M10 A3006 RMK A01 T10381100  RH  062%=      5-min Rain = 0
KTH1 110414Z 02009KT M04/M10 A3006 RMK A01 T10381100  RH  062%=      5-min Rain = 0
KTH1 110415Z 02008KT M04/M10 A3006 RMK A01 T10391100  RH  062%=      5-min Rain = 0
KTH1 110416Z 02006KT M04/M10 A3006 RMK A01 T10381100  RH  062%=      5-min Rain = 0
KTH1 110417Z 02007KT M04/M10 A3006 RMK A01 T10391100  RH  063%=      5-min Rain = 0
KTH1 110418Z 01008KT M04/M10 A3006 RMK A01 T10391100  RH  063%=      5-min Rain = 0
KTH1 110419Z 03006KT M04/M10 A3006 RMK A01 T10391100  RH  063%=      5-min Rain = 0
KTH1 110420Z 02007KT M04/M10 A3006 RMK A01 T10391099  RH  063%=      5-min Rain = 0
KTH1 110421Z 02006KT M04/M10 A3006 RMK A01 T10391099  RH  063%=      5-min Rain = 0
KTH1 110422Z 03005KT M04/M10 A3006 RMK A01 T10401099  RH  063%=      5-min Rain = 0
KTH1 110423Z 02005KT M04/M10 A3006 RMK A01 T10401099  RH  063%=      5-min Rain = 0
KTH1 110424Z 02008KT M04/M10 A3006 RMK A01 T10411100  RH  064%=      5-min Rain = 0
KTH1 110425Z 03009KT M04/M10 A3007 RMK A01 T10411099  RH  064%=      5-min Rain = 0
KTH1 110426Z 02009KT M04/M10 A3007 RMK A01 T10421100  RH  064%=      5-min Rain = 0
KTH1 110427Z 01007KT M04/M10 A3007 RMK A01 T10421099  RH  064%=      5-min Rain = 0
KTH1 110428Z 02006G11KT M04/M10 A3007 RMK A01 T10421099  RH  064%=      5-min Rain = 0
KTH1 110429Z 02010KT M04/M10 A3007 RMK A01 T10421099  RH  064%=      5-min Rain = 0
KTH1 110430Z 02006KT M04/M10 A3007 RMK A01 T10431099  RH  065%=      5-min Rain = 0
KTH1 110431Z 02006KT M04/M10 A3007 RMK A01 T10431100  RH  065%=      5-min Rain = 0
KTH1 110432Z 02006KT M04/M10 A3007 RMK A01 T10431099  RH  065%=      5-min Rain = 0
KTH1 110433Z 03008KT M04/M10 A3007 RMK A01 T10431099  RH  065%=      5-min Rain = 0
KTH1 110434Z 02006KT M04/M10 A3007 RMK A01 T10431099  RH  065%=      5-min Rain = 0
KTH1 110435Z 02006KT M04/M10 A3007 RMK A01 T10441100  RH  065%=      5-min Rain = 0
KTH1 110436Z 03007KT M04/M10 A3007 RMK A01 T10441100  RH  065%=      5-min Rain = 0
KTH1 110437Z 03007KT M04/M10 A3008 RMK A01 T10441100  RH  065%=      5-min Rain = 0
KTH1 110438Z 03007KT M04/M10 A3008 RMK A01 T10441100  RH  065%=      5-min Rain = 0
KTH1 110439Z 03008KT M05/M10 A3008 RMK A01 T10451100  RH  065%=      5-min Rain = 0
KTH1 110440Z 01007KT M05/M10 A3008 RMK A01 T10451100  RH  065%=      5-min Rain = 0
KTH1 110441Z 02009KT M05/M10 A3008 RMK A01 T10451100  RH  066%=      5-min Rain = 0
KTH1 110442Z 02009KT M05/M10 A3008 RMK A01 T10461100  RH  066%=      5-min Rain = 0
KTH1 110443Z 02010KT M05/M10 A3008 RMK A01 T10461100  RH  066%=      5-min Rain = 0
KTH1 110444Z 03008KT M05/M10 A3008 RMK A01 T10461101  RH  066%=      5-min Rain = 0
KTH1 110445Z 02010KT M05/M10 A3008 RMK A01 T10461101  RH  066%=      5-min Rain = 0
KTH1 110446Z 02008KT M05/M10 A3008 RMK A01 T10461101  RH  066%=      5-min Rain = 0
KTH1 110447Z 02010KT M05/M10 A3008 RMK A01 T10471101  RH  066%=      5-min Rain = 0
KTH1 110448Z 02007KT M05/M10 A3008 RMK A01 T10471101  RH  066%=      5-min Rain = 0
KTH1 110449Z 02008G13KT M05/M10 A3008 RMK A01 T10471101  RH  066%=      5-min Rain = 0
KTH1 110450Z 02009KT M05/M10 A3008 RMK A01 T10471101  RH  066%=      5-min Rain = 0
KTH1 110451Z 03008KT M05/M10 A3008 RMK A01 T10481101  RH  066%=      5-min Rain = 0
KTH1 110452Z 02006KT M05/M10 A3008 RMK A01 T10481101  RH  066%=      5-min Rain = 0
KTH1 110453Z 02008KT M05/M10 A3009 RMK A01 T10481101  RH  066%=      5-min Rain = 0
KTH1 110454Z 01007KT M05/M10 A3008 RMK A01 T10481101  RH  067%=      5-min Rain = 0
KTH1 110455Z 03007KT M05/M10 A3008 RMK A01 T10491101  RH  067%=      5-min Rain = 0
KTH1 110456Z 01007G12KT M05/M10 A3008 RMK A01 T10491101  RH  067%=      5-min Rain = 0
KTH1 110457Z 03007KT M05/M10 A3008 RMK A01 T10491101  RH  067%=      5-min Rain = 0
KTH1 110458Z 02006KT M05/M10 A3008 RMK A01 T10491101  RH  067%=      5-min Rain = 0
KTH1 110459Z 01007KT M05/M10 A3008 RMK A01 T10491101  RH  067%=      5-min Rain = 0
KTH1 110500Z 03007KT M05/M10 A3008 RMK A01 T10501101  RH  067%=      5-min Rain = 0
KTH1 110501Z 03008KT M05/M10 A3008 RMK A01 T10501101  RH  067%=      5-min Rain = 0
KTH1 110502Z 02007G12KT M05/M10 A3008 RMK A01 T10501101  RH  067%=      5-min Rain = 0
KTH1 110503Z 03006KT M05/M10 A3008 RMK A01 T10501102  RH  067%=      5-min Rain = 0
KTH1 110504Z 03007KT M05/M10 A3008 RMK A01 T10501102  RH  067%=      5-min Rain = 0
KTH1 110505Z 02007KT M05/M10 A3008 RMK A01 T10511102  RH  067%=      5-min Rain = 0
KTH1 110506Z 03008KT M05/M10 A3008 RMK A01 T10511102  RH  067%=      5-min Rain = 0
KTH1 110507Z 02007KT M05/M10 A3008 RMK A01 T10511102  RH  067%=      5-min Rain = 0
KTH1 110508Z 02007KT M05/M10 A3008 RMK A01 T10511102  RH  068%=      5-min Rain = 0
KTH1 110509Z 02010KT M05/M10 A3008 RMK A01 T10511102  RH  068%=      5-min Rain = 0
KTH1 110510Z 02008KT M05/M10 A3008 RMK A01 T10511102  RH  068%=      5-min Rain = 0
KTH1 110511Z 02007KT M05/M10 A3008 RMK A01 T10511102  RH  068%=      5-min Rain = 0
KTH1 110512Z 02007KT M05/M10 A3007 RMK A01 T10521102  RH  068%=      5-min Rain = 0
KTH1 110513Z 02008KT M05/M10 A3007 RMK A01 T10521102  RH  068%=      5-min Rain = 0
KTH1 110514Z 02009KT M05/M10 A3007 RMK A01 T10531102  RH  068%=      5-min Rain = 0
KTH1 110515Z 02010KT M05/M10 A3007 RMK A01 T10531102  RH  068%=      5-min Rain = 0
KTH1 110516Z 02009KT M05/M10 A3007 RMK A01 T10531102  RH  068%=      5-min Rain = 0
KTH1 110517Z 01010KT M05/M10 A3007 RMK A01 T10531102  RH  068%=      5-min Rain = 0
KTH1 110518Z 01006KT M05/M10 A3007 RMK A01 T10531102  RH  068%=      5-min Rain = 0
KTH1 110519Z 02008KT M05/M10 A3007 RMK A01 T10531102  RH  068%=      5-min Rain = 0
KTH1 110520Z 02009KT M05/M10 A3007 RMK A01 T10541102  RH  068%=      5-min Rain = 0
KTH1 110521Z 02007KT M05/M10 A3007 RMK A01 T10541102  RH  069%=      5-min Rain = 0
KTH1 110522Z 01008KT M05/M10 A3007 RMK A01 T10531102  RH  069%=      5-min Rain = 0
KTH1 110523Z 02010KT M05/M10 A3007 RMK A01 T10541102  RH  069%=      5-min Rain = 0
KTH1 110524Z 02009KT M05/M10 A3006 RMK A01 T10541103  RH  069%=      5-min Rain = 0
KTH1 110525Z 01007KT M06/M10 A3006 RMK A01 T10551103  RH  069%=      5-min Rain = 0
KTH1 110526Z 02007KT M06/M10 A3006 RMK A01 T10551103  RH  069%=      5-min Rain = 0
KTH1 110527Z 02007KT M06/M10 A3006 RMK A01 T10551103  RH  069%=      5-min Rain = 0
KTH1 110528Z 02008KT M06/M10 A3006 RMK A01 T10551103  RH  069%=      5-min Rain = 0
KTH1 110529Z 01007KT M06/M10 A3007 RMK A01 T10551103  RH  069%=      5-min Rain = 0
KTH1 110530Z 01008KT M06/M10 A3007 RMK A01 T10561103  RH  069%=      5-min Rain = 0
KTH1 110531Z 00007KT M06/M10 A3007 RMK A01 T10561103  RH  069%=      5-min Rain = 0
KTH1 110532Z 01006KT M06/M10 A3007 RMK A01 T10561103  RH  070%=      5-min Rain = 0
KTH1 110533Z 01005KT M06/M10 A3007 RMK A01 T10561103  RH  070%=      5-min Rain = 0
KTH1 110534Z 00007KT M06/M10 A3007 RMK A01 T10571103  RH  070%=      5-min Rain = 0
KTH1 110535Z 36006KT M06/M10 A3007 RMK A01 T10571103  RH  070%=      5-min Rain = 0
KTH1 110536Z 36009KT M06/M10 A3008 RMK A01 T10571103  RH  070%=      5-min Rain = 0
KTH1 110537Z 36009KT M06/M10 A3008 RMK A01 T10571103  RH  070%=      5-min Rain = 0
KTH1 110538Z 00007KT M06/M10 A3008 RMK A01 T10571104  RH  070%=      5-min Rain = 0
KTH1 110539Z 00006KT M06/M10 A3008 RMK A01 T10571103  RH  070%=      5-min Rain = 0
KTH1 110540Z 36006KT M06/M10 A3008 RMK A01 T10581104  RH  070%=      5-min Rain = 0
KTH1 110541Z 00007KT M06/M10 A3008 RMK A01 T10581103  RH  070%=      5-min Rain = 0
KTH1 110542Z 35007KT M06/M10 A3008 RMK A01 T10581104  RH  070%=      5-min Rain = 0
KTH1 110543Z 00007KT M06/M10 A3008 RMK A01 T10581104  RH  070%=      5-min Rain = 0
KTH1 110544Z 36004KT M06/M10 A3008 RMK A01 T10581104  RH  070%=      5-min Rain = 0
KTH1 110545Z 01006KT M06/M10 A3008 RMK A01 T10581104  RH  070%=      5-min Rain = 0
KTH1 110546Z 35008KT M06/M11 A3009 RMK A01 T10581105  RH  070%=      5-min Rain = 0
KTH1 110547Z 36006KT M06/M10 A3009 RMK A01 T10581104  RH  070%=      5-min Rain = 0
KTH1 110548Z 35007KT M06/M10 A3009 RMK A01 T10571104  RH  070%=      5-min Rain = 0
KTH1 110549Z 36005KT M06/M11 A3009 RMK A01 T10581105  RH  069%=      5-min Rain = 0
KTH1 110550Z 36005KT M06/M11 A3009 RMK A01 T10581105  RH  069%=      5-min Rain = 0
KTH1 110551Z 35006KT M06/M11 A3009 RMK A01 T10581105  RH  069%=      5-min Rain = 0
KTH1 110552Z 36005KT M06/M11 A3009 RMK A01 T10581105  RH  069%=      5-min Rain = 0
KTH1 110553Z 36006KT M06/M11 A3009 RMK A01 T10581105  RH  069%=      5-min Rain = 0
KTH1 110554Z 00008KT M06/M11 A3009 RMK A01 T10581105  RH  069%=      5-min Rain = 0
KTH1 110555Z 00008KT M06/M11 A3009 RMK A01 T10571106  RH  069%=      5-min Rain = 0
KTH1 110556Z 01008KT M06/M11 A3009 RMK A01 T10581107  RH  068%=      5-min Rain = 0
KTH1 110557Z 36006KT M06/M11 A3009 RMK A01 T10581107  RH  068%=      5-min Rain = 0
KTH1 110558Z 00005KT M06/M11 A3009 RMK A01 T10581107  RH  068%=      5-min Rain = 0
KTH1 110559Z 00005KT M06/M11 A3009 RMK A01 T10591108  RH  068%=      5-min Rain = 0

Page generated in 0.1518 seconds.